﻿<?xml version="1.0" encoding="utf-8"?><gpx creator="Garmin Desktop App" version="1.1" xsi:schemaLocation="http://www.topografix.com/GPX/1/1 http://www.topografix.com/GPX/1/1/gpx.xsd http://www.garmin.com/xmlschemas/WaypointExtension/v1 http://www8.garmin.com/xmlschemas/WaypointExtensionv1.xsd http://www.garmin.com/xmlschemas/TrackPointExtension/v1 http://www.garmin.com/xmlschemas/TrackPointExtensionv1.xsd http://www.garmin.com/xmlschemas/GpxExtensions/v3 http://www8.garmin.com/xmlschemas/GpxExtensionsv3.xsd http://www.garmin.com/xmlschemas/ActivityExtension/v1 http://www8.garmin.com/xmlschemas/ActivityExtensionv1.xsd http://www.garmin.com/xmlschemas/AdventuresExtensions/v1 http://www8.garmin.com/xmlschemas/AdventuresExtensionv1.xsd http://www.garmin.com/xmlschemas/PressureExtension/v1 http://www.garmin.com/xmlschemas/PressureExtensionv1.xsd http://www.garmin.com/xmlschemas/TripExtensions/v1 http://www.garmin.com/xmlschemas/TripExtensionsv1.xsd http://www.garmin.com/xmlschemas/TripMetaDataExtensions/v1 http://www.garmin.com/xmlschemas/TripMetaDataExtensionsv1.xsd http://www.garmin.com/xmlschemas/ViaPointTransportationModeExtensions/v1 http://www.garmin.com/xmlschemas/ViaPointTransportationModeExtensionsv1.xsd http://www.garmin.com/xmlschemas/CreationTimeExtension/v1 http://www.garmin.com/xmlschemas/CreationTimeExtensionsv1.xsd http://www.garmin.com/xmlschemas/AccelerationExtension/v1 http://www.garmin.com/xmlschemas/AccelerationExtensionv1.xsd http://www.garmin.com/xmlschemas/PowerExtension/v1 http://www.garmin.com/xmlschemas/PowerExtensionv1.xsd http://www.garmin.com/xmlschemas/VideoExtension/v1 http://www.garmin.com/xmlschemas/VideoExtensionv1.xsd" xmlns="http://www.topografix.com/GPX/1/1" xmlns:xsi="http://www.w3.org/2001/XMLSchema-instance" xmlns:wptx1="http://www.garmin.com/xmlschemas/WaypointExtension/v1" xmlns:gpxtrx="http://www.garmin.com/xmlschemas/GpxExtensions/v3" xmlns:gpxtpx="http://www.garmin.com/xmlschemas/TrackPointExtension/v1" xmlns:gpxx="http://www.garmin.com/xmlschemas/GpxExtensions/v3" xmlns:trp="http://www.garmin.com/xmlschemas/TripExtensions/v1" xmlns:adv="http://www.garmin.com/xmlschemas/AdventuresExtensions/v1" xmlns:prs="http://www.garmin.com/xmlschemas/PressureExtension/v1" xmlns:tmd="http://www.garmin.com/xmlschemas/TripMetaDataExtensions/v1" xmlns:vptm="http://www.garmin.com/xmlschemas/ViaPointTransportationModeExtensions/v1" xmlns:ctx="http://www.garmin.com/xmlschemas/CreationTimeExtension/v1" xmlns:gpxacc="http://www.garmin.com/xmlschemas/AccelerationExtension/v1" xmlns:gpxpx="http://www.garmin.com/xmlschemas/PowerExtension/v1" xmlns:vidx1="http://www.garmin.com/xmlschemas/VideoExtension/v1">

  <metadata>
    <link href="http://www.garmin.com">
      <text>Garmin International</text>
    </link>
    <time>2021-08-22T18:48:08Z</time>
    <bounds maxlat="50.786432940512896" maxlon="4.455028474330902" minlat="50.73072848841548" minlon="4.388285810127854" />
  </metadata>

  <trk>
    <name>station marry horse 23 km</name>
    <extensions>
      <gpxx:TrackExtension>
        <gpxx:DisplayColor>Magenta</gpxx:DisplayColor>
      </gpxx:TrackExtension>
    </extensions>
    <trkseg>
      <trkpt lat="50.767031600698829" lon="4.4491330627352">
        <ele>1045.3299999999999</ele>
        <time>2018-03-25T08:18:33Z</time>
      </trkpt>
      <trkpt lat="50.767158251255751" lon="4.449217468500137">
        <ele>1045.29</ele>
        <time>2018-03-25T08:18:54Z</time>
      </trkpt>
      <trkpt lat="50.767244333401322" lon="4.449356691911817">
        <ele>1045.3199999999999</ele>
        <time>2018-03-25T08:19:17Z</time>
      </trkpt>
      <trkpt lat="50.767433848232031" lon="4.449601862579584">
        <ele>1045.3099999999999</ele>
        <time>2018-03-25T08:19:37Z</time>
      </trkpt>
      <trkpt lat="50.767672397196293" lon="4.449761202558875">
        <ele>1044.51</ele>
        <time>2018-03-25T08:19:59Z</time>
      </trkpt>
      <trkpt lat="50.767846573144197" lon="4.450007798150182">
        <ele>1043.74</ele>
        <time>2018-03-25T08:20:18Z</time>
      </trkpt>
      <trkpt lat="50.768008176237345" lon="4.450242826715112">
        <ele>1042.8599999999999</ele>
        <time>2018-03-25T08:20:38Z</time>
      </trkpt>
      <trkpt lat="50.768151925876737" lon="4.450406776741147">
        <ele>1041.3699999999999</ele>
        <time>2018-03-25T08:20:55Z</time>
      </trkpt>
      <trkpt lat="50.768406232818961" lon="4.450567625463009">
        <ele>1037.8199999999999</ele>
        <time>2018-03-25T08:21:17Z</time>
      </trkpt>
      <trkpt lat="50.768691468983889" lon="4.450820758938789">
        <ele>1037.0599999999999</ele>
        <time>2018-03-25T08:21:37Z</time>
      </trkpt>
      <trkpt lat="50.769138224422932" lon="4.451239686459303">
        <ele>1035.5</ele>
        <time>2018-03-25T08:22:09Z</time>
      </trkpt>
      <trkpt lat="50.769322458654642" lon="4.451551157981157">
        <ele>1034.72</ele>
        <time>2018-03-25T08:22:30Z</time>
      </trkpt>
      <trkpt lat="50.769476518034935" lon="4.451900934800506">
        <ele>1034.73</ele>
        <time>2018-03-25T08:22:51Z</time>
      </trkpt>
      <trkpt lat="50.769659327343106" lon="4.452284825965762">
        <ele>1034.73</ele>
        <time>2018-03-25T08:23:12Z</time>
      </trkpt>
      <trkpt lat="50.769867366179824" lon="4.452570481225848">
        <ele>1034.73</ele>
        <time>2018-03-25T08:23:33Z</time>
      </trkpt>
      <trkpt lat="50.77001329511404" lon="4.452836355194449">
        <ele>1034.74</ele>
        <time>2018-03-25T08:23:47Z</time>
      </trkpt>
      <trkpt lat="50.770099628716707" lon="4.453066689893603">
        <ele>1034.73</ele>
        <time>2018-03-25T08:23:59Z</time>
      </trkpt>
      <trkpt lat="50.770208844915032" lon="4.453231645748019">
        <ele>1034.72</ele>
        <time>2018-03-25T08:24:09Z</time>
      </trkpt>
      <trkpt lat="50.770390816032887" lon="4.453330049291253">
        <ele>1033.8800000000001</ele>
        <time>2018-03-25T08:24:25Z</time>
      </trkpt>
      <trkpt lat="50.770527776330709" lon="4.453361481428146">
        <ele>1032.3299999999999</ele>
        <time>2018-03-25T08:24:39Z</time>
      </trkpt>
      <trkpt lat="50.770539594814181" lon="4.453384950757027">
        <ele>1032.3299999999999</ele>
        <time>2018-03-25T08:24:41Z</time>
      </trkpt>
      <trkpt lat="50.770706981420517" lon="4.453285876661539">
        <ele>1030.3599999999999</ele>
        <time>2018-03-25T08:24:59Z</time>
      </trkpt>
      <trkpt lat="50.770712094381452" lon="4.453253271058202">
        <ele>1029.45</ele>
        <time>2018-03-25T08:25:01Z</time>
      </trkpt>
      <trkpt lat="50.770725589245558" lon="4.453175738453865">
        <ele>1027.5999999999999</ele>
        <time>2018-03-25T08:25:05Z</time>
      </trkpt>
      <trkpt lat="50.770739754661918" lon="4.453131565824151">
        <ele>1026.72</ele>
        <time>2018-03-25T08:25:08Z</time>
      </trkpt>
      <trkpt lat="50.770921558141708" lon="4.453067444264889">
        <ele>1024.0699999999999</ele>
        <time>2018-03-25T08:25:25Z</time>
      </trkpt>
      <trkpt lat="50.771027589216828" lon="4.453003909438849">
        <ele>1024.0799999999999</ele>
        <time>2018-03-25T08:25:30Z</time>
      </trkpt>
      <trkpt lat="50.7711620349437" lon="4.452953366562724">
        <ele>1023.21</ele>
        <time>2018-03-25T08:25:34Z</time>
      </trkpt>
      <trkpt lat="50.771409217268229" lon="4.452803833410144">
        <ele>1023.23</ele>
        <time>2018-03-25T08:25:41Z</time>
      </trkpt>
      <trkpt lat="50.771519942209125" lon="4.452782459557056">
        <ele>1021.14</ele>
        <time>2018-03-25T08:25:56Z</time>
      </trkpt>
      <trkpt lat="50.771519942209125" lon="4.452778771519661">
        <ele>1025.4400000000001</ele>
        <time>2018-03-25T08:25:57Z</time>
      </trkpt>
      <trkpt lat="50.771527905017138" lon="4.452769551426172">
        <ele>1025.4300000000001</ele>
        <time>2018-03-25T08:25:58Z</time>
      </trkpt>
      <trkpt lat="50.771549697965384" lon="4.452602416276932">
        <ele>1025.4300000000001</ele>
        <time>2018-03-25T08:26:13Z</time>
      </trkpt>
      <trkpt lat="50.771541567519307" lon="4.452640637755394">
        <ele>1025.4300000000001</ele>
        <time>2018-03-25T08:26:29Z</time>
      </trkpt>
      <trkpt lat="50.771558163687587" lon="4.452647343277931">
        <ele>1023.17</ele>
        <time>2018-03-25T08:26:42Z</time>
      </trkpt>
      <trkpt lat="50.771617088466883" lon="4.45259403437376">
        <ele>1023.17</ele>
        <time>2018-03-25T08:27:02Z</time>
      </trkpt>
      <trkpt lat="50.771602001041174" lon="4.452408459037542">
        <ele>1023.1799999999999</ele>
        <time>2018-03-25T08:27:20Z</time>
      </trkpt>
      <trkpt lat="50.771555984392762" lon="4.452055329456925">
        <ele>1023.1799999999999</ele>
        <time>2018-03-25T08:27:38Z</time>
      </trkpt>
      <trkpt lat="50.771567719057202" lon="4.451719801872969">
        <ele>1023.1900000000001</ele>
        <time>2018-03-25T08:27:55Z</time>
      </trkpt>
      <trkpt lat="50.77157786116004" lon="4.451529700309038">
        <ele>1023.1799999999999</ele>
        <time>2018-03-25T08:28:06Z</time>
      </trkpt>
      <trkpt lat="50.771293211728334" lon="4.450807180255652">
        <ele>1026.8900000000001</ele>
        <time>2018-03-25T08:28:59Z</time>
      </trkpt>
      <trkpt lat="50.770953577011824" lon="4.449007418006659">
        <ele>1026.8900000000001</ele>
        <time>2018-03-25T08:29:37Z</time>
      </trkpt>
      <trkpt lat="50.772124612703919" lon="4.449142869561911">
        <ele>1026.8900000000001</ele>
        <time>2018-03-25T08:29:56Z</time>
      </trkpt>
      <trkpt lat="50.772639932110906" lon="4.449457945302129">
        <ele>1026.8900000000001</ele>
        <time>2018-03-25T08:30:15Z</time>
      </trkpt>
      <trkpt lat="50.772912930697203" lon="4.44938619621098">
        <ele>1028.8199999999999</ele>
        <time>2018-03-25T08:30:30Z</time>
      </trkpt>
      <trkpt lat="50.773081323131919" lon="4.449454508721829">
        <ele>1032.6900000000001</ele>
        <time>2018-03-25T08:30:40Z</time>
      </trkpt>
      <trkpt lat="50.773292127996683" lon="4.449472865089774">
        <ele>1035.1700000000001</ele>
        <time>2018-03-25T08:31:01Z</time>
      </trkpt>
      <trkpt lat="50.773613154888153" lon="4.449452832341194">
        <ele>1037.6900000000001</ele>
        <time>2018-03-25T08:31:19Z</time>
      </trkpt>
      <trkpt lat="50.773674426600337" lon="4.449433302506805">
        <ele>1037.6800000000001</ele>
        <time>2018-03-25T08:31:22Z</time>
      </trkpt>
      <trkpt lat="50.773839382454753" lon="4.44938569329679">
        <ele>1039.46</ele>
        <time>2018-03-25T08:31:32Z</time>
      </trkpt>
      <trkpt lat="50.774056892842054" lon="4.449378484860063">
        <ele>1041.26</ele>
        <time>2018-03-25T08:31:47Z</time>
      </trkpt>
      <trkpt lat="50.774328550323844" lon="4.449374293908477">
        <ele>1043.72</ele>
        <time>2018-03-25T08:32:07Z</time>
      </trkpt>
      <trkpt lat="50.774464420974255" lon="4.449375718832016">
        <ele>1044.5899999999999</ele>
        <time>2018-03-25T08:32:18Z</time>
      </trkpt>
      <trkpt lat="50.77470607124269" lon="4.44944579154253">
        <ele>1045.3399999999999</ele>
        <time>2018-03-25T08:32:38Z</time>
      </trkpt>
      <trkpt lat="50.775038162246346" lon="4.449597084894776">
        <ele>1047.05</ele>
        <time>2018-03-25T08:32:59Z</time>
      </trkpt>
      <trkpt lat="50.77537452802062" lon="4.449715102091432">
        <ele>1048.72</ele>
        <time>2018-03-25T08:33:24Z</time>
      </trkpt>
      <trkpt lat="50.775625482201576" lon="4.449748797342181">
        <ele>1049.5</ele>
        <time>2018-03-25T08:33:44Z</time>
      </trkpt>
      <trkpt lat="50.775867383927107" lon="4.449833454564214">
        <ele>1050.3199999999999</ele>
        <time>2018-03-25T08:34:03Z</time>
      </trkpt>
      <trkpt lat="50.776209784671664" lon="4.449845021590591">
        <ele>1052.02</ele>
        <time>2018-03-25T08:34:24Z</time>
      </trkpt>
      <trkpt lat="50.776526536792517" lon="4.449860025197268">
        <ele>1052.75</ele>
        <time>2018-03-25T08:34:45Z</time>
      </trkpt>
      <trkpt lat="50.776752261444926" lon="4.449880057945848">
        <ele>1053.6600000000001</ele>
        <time>2018-03-25T08:35:02Z</time>
      </trkpt>
      <trkpt lat="50.776999862864614" lon="4.449844686314464">
        <ele>1055.27</ele>
        <time>2018-03-25T08:35:22Z</time>
      </trkpt>
      <trkpt lat="50.777364810928702" lon="4.449847703799605">
        <ele>1055.23</ele>
        <time>2018-03-25T08:35:44Z</time>
      </trkpt>
      <trkpt lat="50.777562707662582" lon="4.449918614700437">
        <ele>1055.25</ele>
        <time>2018-03-25T08:35:57Z</time>
      </trkpt>
      <trkpt lat="50.777799412608147" lon="4.449994806200266">
        <ele>1055.23</ele>
        <time>2018-03-25T08:36:11Z</time>
      </trkpt>
      <trkpt lat="50.777985658496618" lon="4.450068818405271">
        <ele>1052.71</ele>
        <time>2018-03-25T08:36:26Z</time>
      </trkpt>
      <trkpt lat="50.778114991262555" lon="4.450203599408269">
        <ele>1050.6800000000001</ele>
        <time>2018-03-25T08:36:39Z</time>
      </trkpt>
      <trkpt lat="50.778264356777072" lon="4.450370734557509">
        <ele>1049.9100000000001</ele>
        <time>2018-03-25T08:36:56Z</time>
      </trkpt>
      <trkpt lat="50.778428222984076" lon="4.450536025688052">
        <ele>1049.9300000000001</ele>
        <time>2018-03-25T08:37:05Z</time>
      </trkpt>
      <trkpt lat="50.778552023693919" lon="4.450581874698401">
        <ele>1049.9400000000001</ele>
        <time>2018-03-25T08:37:11Z</time>
      </trkpt>
      <trkpt lat="50.778604494407773" lon="4.450499564409256">
        <ele>1049.95</ele>
        <time>2018-03-25T08:37:20Z</time>
      </trkpt>
      <trkpt lat="50.7786272931844" lon="4.450433682650328">
        <ele>1049.9400000000001</ele>
        <time>2018-03-25T08:37:24Z</time>
      </trkpt>
      <trkpt lat="50.778853436931968" lon="4.449921464547515">
        <ele>1049.9300000000001</ele>
        <time>2018-03-25T08:37:44Z</time>
      </trkpt>
      <trkpt lat="50.778924766927958" lon="4.44976924918592">
        <ele>1049.95</ele>
        <time>2018-03-25T08:37:53Z</time>
      </trkpt>
      <trkpt lat="50.778979081660509" lon="4.449510416015983">
        <ele>1052.5</ele>
        <time>2018-03-25T08:38:06Z</time>
      </trkpt>
      <trkpt lat="50.779016548767686" lon="4.449215037748218">
        <ele>1055.03</ele>
        <time>2018-03-25T08:38:23Z</time>
      </trkpt>
      <trkpt lat="50.779207237064838" lon="4.448978416621685">
        <ele>1055.6700000000001</ele>
        <time>2018-03-25T08:38:44Z</time>
      </trkpt>
      <trkpt lat="50.779355764389038" lon="4.448692006990314">
        <ele>1057.3900000000001</ele>
        <time>2018-03-25T08:39:04Z</time>
      </trkpt>
      <trkpt lat="50.779511500149965" lon="4.448406267911196">
        <ele>1059.0899999999999</ele>
        <time>2018-03-25T08:39:25Z</time>
      </trkpt>
      <trkpt lat="50.779695231467485" lon="4.448044337332249">
        <ele>1059.9200000000001</ele>
        <time>2018-03-25T08:39:45Z</time>
      </trkpt>
      <trkpt lat="50.779803274199367" lon="4.447764381766319">
        <ele>1065.4400000000001</ele>
        <time>2018-03-25T08:39:59Z</time>
      </trkpt>
      <trkpt lat="50.779806207865477" lon="4.447742253541946">
        <ele>1059.7</ele>
        <time>2018-03-25T08:40:00Z</time>
      </trkpt>
      <trkpt lat="50.77983764000237" lon="4.447467746213079">
        <ele>1059.6600000000001</ele>
        <time>2018-03-25T08:40:15Z</time>
      </trkpt>
      <trkpt lat="50.779855996370316" lon="4.447311172261834">
        <ele>1062.1700000000001</ele>
        <time>2018-03-25T08:40:21Z</time>
      </trkpt>
      <trkpt lat="50.779930343851447" lon="4.447012441232801">
        <ele>1062.1900000000001</ele>
        <time>2018-03-25T08:40:28Z</time>
      </trkpt>
      <trkpt lat="50.779962530359626" lon="4.446961563080549">
        <ele>1062.1800000000001</ele>
        <time>2018-03-25T08:40:30Z</time>
      </trkpt>
      <trkpt lat="50.779971415176988" lon="4.446933316066861">
        <ele>1062.1800000000001</ele>
        <time>2018-03-25T08:40:31Z</time>
      </trkpt>
      <trkpt lat="50.77998080290854" lon="4.446903560310602">
        <ele>1062.96</ele>
        <time>2018-03-25T08:40:32Z</time>
      </trkpt>
      <trkpt lat="50.779980383813381" lon="4.446872295811772">
        <ele>1062.98</ele>
        <time>2018-03-25T08:40:33Z</time>
      </trkpt>
      <trkpt lat="50.77998667024076" lon="4.446838349103928">
        <ele>1059.1300000000001</ele>
        <time>2018-03-25T08:40:34Z</time>
      </trkpt>
      <trkpt lat="50.77999010682106" lon="4.446800043806434">
        <ele>1063.75</ele>
        <time>2018-03-25T08:40:35Z</time>
      </trkpt>
      <trkpt lat="50.779991950839758" lon="4.446764504536986">
        <ele>1063.72</ele>
        <time>2018-03-25T08:40:36Z</time>
      </trkpt>
      <trkpt lat="50.779996728524566" lon="4.446727456524968">
        <ele>1063.71</ele>
        <time>2018-03-25T08:40:37Z</time>
      </trkpt>
      <trkpt lat="50.780003517866135" lon="4.446693677455187">
        <ele>1063.6900000000001</ele>
        <time>2018-03-25T08:40:38Z</time>
      </trkpt>
      <trkpt lat="50.780016845092177" lon="4.446669537574053">
        <ele>1063.6600000000001</ele>
        <time>2018-03-25T08:40:39Z</time>
      </trkpt>
      <trkpt lat="50.780029920861125" lon="4.446637853980064">
        <ele>1063.6600000000001</ele>
        <time>2018-03-25T08:40:40Z</time>
      </trkpt>
      <trkpt lat="50.780038805678487" lon="4.446604996919632">
        <ele>1063.6400000000001</ele>
        <time>2018-03-25T08:40:41Z</time>
      </trkpt>
      <trkpt lat="50.780048612505198" lon="4.446482453495264">
        <ele>1063.6199999999999</ele>
        <time>2018-03-25T08:40:45Z</time>
      </trkpt>
      <trkpt lat="50.780048780143261" lon="4.446448087692261">
        <ele>1063.6199999999999</ele>
        <time>2018-03-25T08:40:46Z</time>
      </trkpt>
      <trkpt lat="50.780046684667468" lon="4.446410369127989">
        <ele>1063.5899999999999</ele>
        <time>2018-03-25T08:40:47Z</time>
      </trkpt>
      <trkpt lat="50.780051294714212" lon="4.446371393278241">
        <ele>1063.5899999999999</ele>
        <time>2018-03-25T08:40:48Z</time>
      </trkpt>
      <trkpt lat="50.780049953609705" lon="4.446305343881249">
        <ele>1063.5999999999999</ele>
        <time>2018-03-25T08:40:49Z</time>
      </trkpt>
      <trkpt lat="50.780056826770306" lon="4.446266870945692">
        <ele>1063.5999999999999</ele>
        <time>2018-03-25T08:40:50Z</time>
      </trkpt>
      <trkpt lat="50.780071998015046" lon="4.446233594790101">
        <ele>1061.24</ele>
        <time>2018-03-25T08:40:51Z</time>
      </trkpt>
      <trkpt lat="50.780097981914878" lon="4.446192523464561">
        <ele>1061.21</ele>
        <time>2018-03-25T08:40:52Z</time>
      </trkpt>
      <trkpt lat="50.780123462900519" lon="4.446142399683595">
        <ele>1060.3</ele>
        <time>2018-03-25T08:40:53Z</time>
      </trkpt>
      <trkpt lat="50.780142238363624" lon="4.446108285337687">
        <ele>1060.27</ele>
        <time>2018-03-25T08:40:54Z</time>
      </trkpt>
      <trkpt lat="50.780156906694174" lon="4.44605715572834">
        <ele>1059.21</ele>
        <time>2018-03-25T08:40:55Z</time>
      </trkpt>
      <trkpt lat="50.780169144272804" lon="4.446020694449544">
        <ele>1059.26</ele>
        <time>2018-03-25T08:40:56Z</time>
      </trkpt>
      <trkpt lat="50.78019093722105" lon="4.44599412381649">
        <ele>1059.26</ele>
        <time>2018-03-25T08:40:57Z</time>
      </trkpt>
      <trkpt lat="50.780192529782653" lon="4.445928661152721">
        <ele>1059.26</ele>
        <time>2018-03-25T08:40:58Z</time>
      </trkpt>
      <trkpt lat="50.780200324952602" lon="4.445899073034525">
        <ele>1059.3</ele>
        <time>2018-03-25T08:40:59Z</time>
      </trkpt>
      <trkpt lat="50.780206527560949" lon="4.445851380005479">
        <ele>1059.3099999999999</ele>
        <time>2018-03-25T08:41:00Z</time>
      </trkpt>
      <trkpt lat="50.780220357701182" lon="4.445809302851558">
        <ele>1059.29</ele>
        <time>2018-03-25T08:41:01Z</time>
      </trkpt>
      <trkpt lat="50.780234858393669" lon="4.445782648399472">
        <ele>1059.3099999999999</ele>
        <time>2018-03-25T08:41:02Z</time>
      </trkpt>
      <trkpt lat="50.780306691303849" lon="4.445336312055588">
        <ele>1061.8</ele>
        <time>2018-03-25T08:41:11Z</time>
      </trkpt>
      <trkpt lat="50.780431162565947" lon="4.445044118911028">
        <ele>1064.8099999999999</ele>
        <time>2018-03-25T08:41:18Z</time>
      </trkpt>
      <trkpt lat="50.7804508600384" lon="4.445026516914368">
        <ele>1064.8099999999999</ele>
        <time>2018-03-25T08:41:19Z</time>
      </trkpt>
      <trkpt lat="50.780575582757592" lon="4.444813616573811">
        <ele>1064.8099999999999</ele>
        <time>2018-03-25T08:41:26Z</time>
      </trkpt>
      <trkpt lat="50.780592430382967" lon="4.444803223013878">
        <ele>1064.8299999999999</ele>
        <time>2018-03-25T08:41:27Z</time>
      </trkpt>
      <trkpt lat="50.780636016279459" lon="4.444762319326401">
        <ele>1064.8</ele>
        <time>2018-03-25T08:41:29Z</time>
      </trkpt>
      <trkpt lat="50.780648840591311" lon="4.444739352911711">
        <ele>1064.8</ele>
        <time>2018-03-25T08:41:30Z</time>
      </trkpt>
      <trkpt lat="50.780665436759591" lon="4.444717476144433">
        <ele>1064.8199999999999</ele>
        <time>2018-03-25T08:41:31Z</time>
      </trkpt>
      <trkpt lat="50.780683206394315" lon="4.444695683196187">
        <ele>1064.8</ele>
        <time>2018-03-25T08:41:32Z</time>
      </trkpt>
      <trkpt lat="50.780700640752912" lon="4.444671794772148">
        <ele>1064.8099999999999</ele>
        <time>2018-03-25T08:41:33Z</time>
      </trkpt>
      <trkpt lat="50.78071866184473" lon="4.444642290472984">
        <ele>1064.8</ele>
        <time>2018-03-25T08:41:34Z</time>
      </trkpt>
      <trkpt lat="50.780742466449738" lon="4.44461521692574">
        <ele>1064.8199999999999</ele>
        <time>2018-03-25T08:41:35Z</time>
      </trkpt>
      <trkpt lat="50.780776413157582" lon="4.444580683484674">
        <ele>1064.8199999999999</ele>
        <time>2018-03-25T08:41:36Z</time>
      </trkpt>
      <trkpt lat="50.780795523896813" lon="4.44454581476748">
        <ele>1064.8099999999999</ele>
        <time>2018-03-25T08:41:37Z</time>
      </trkpt>
      <trkpt lat="50.780818574130535" lon="4.444502480328083">
        <ele>1064.8</ele>
        <time>2018-03-25T08:41:38Z</time>
      </trkpt>
      <trkpt lat="50.780839193612337" lon="4.444457637146115">
        <ele>1064.8</ele>
        <time>2018-03-25T08:41:39Z</time>
      </trkpt>
      <trkpt lat="50.781179750338197" lon="4.444082966074348">
        <ele>1066.55</ele>
        <time>2018-03-25T08:41:48Z</time>
      </trkpt>
      <trkpt lat="50.781491305679083" lon="4.44367510266602">
        <ele>1068.3099999999999</ele>
        <time>2018-03-25T08:42:00Z</time>
      </trkpt>
      <trkpt lat="50.781662799417973" lon="4.443445606157184">
        <ele>1069.1300000000001</ele>
        <time>2018-03-25T08:42:12Z</time>
      </trkpt>
      <trkpt lat="50.781756173819304" lon="4.443343011662364">
        <ele>1065.5699999999999</ele>
        <time>2018-03-25T08:42:23Z</time>
      </trkpt>
      <trkpt lat="50.781762879341841" lon="4.443331025540829">
        <ele>1065.5599999999999</ele>
        <time>2018-03-25T08:42:24Z</time>
      </trkpt>
      <trkpt lat="50.781771093606949" lon="4.443330019712448">
        <ele>1070.9000000000001</ele>
        <time>2018-03-25T08:42:25Z</time>
      </trkpt>
      <trkpt lat="50.781782241538167" lon="4.443320967257023">
        <ele>1070.9000000000001</ele>
        <time>2018-03-25T08:42:26Z</time>
      </trkpt>
      <trkpt lat="50.781793808564544" lon="4.4433135073632">
        <ele>1067.51</ele>
        <time>2018-03-25T08:42:27Z</time>
      </trkpt>
      <trkpt lat="50.781848039478064" lon="4.443259695544839">
        <ele>1072.24</ele>
        <time>2018-03-25T08:42:32Z</time>
      </trkpt>
      <trkpt lat="50.781862959265709" lon="4.443247457966209">
        <ele>1072.22</ele>
        <time>2018-03-25T08:42:33Z</time>
      </trkpt>
      <trkpt lat="50.781890032812953" lon="4.443183168768883">
        <ele>1071.1500000000001</ele>
        <time>2018-03-25T08:42:36Z</time>
      </trkpt>
      <trkpt lat="50.781906545162201" lon="4.443136984482408">
        <ele>1069.73</ele>
        <time>2018-03-25T08:42:38Z</time>
      </trkpt>
      <trkpt lat="50.781921548768878" lon="4.443093985319138">
        <ele>1069.8299999999999</ele>
        <time>2018-03-25T08:42:40Z</time>
      </trkpt>
      <trkpt lat="50.781933451071382" lon="4.443070515990257">
        <ele>1069.8</ele>
        <time>2018-03-25T08:42:41Z</time>
      </trkpt>
      <trkpt lat="50.781946275383234" lon="4.443050986155868">
        <ele>1069.8299999999999</ele>
        <time>2018-03-25T08:42:42Z</time>
      </trkpt>
      <trkpt lat="50.782000590115786" lon="4.442821657285094">
        <ele>1069.8199999999999</ele>
        <time>2018-03-25T08:42:53Z</time>
      </trkpt>
      <trkpt lat="50.781972594559193" lon="4.442554023116827">
        <ele>1069.8499999999999</ele>
        <time>2018-03-25T08:43:09Z</time>
      </trkpt>
      <trkpt lat="50.781931774690747" lon="4.442393844947219">
        <ele>1069.8599999999999</ele>
        <time>2018-03-25T08:43:17Z</time>
      </trkpt>
      <trkpt lat="50.781926745548844" lon="4.442316479980946">
        <ele>1066.3299999999999</ele>
        <time>2018-03-25T08:43:20Z</time>
      </trkpt>
      <trkpt lat="50.781925655901432" lon="4.44228739477694">
        <ele>1070.21</ele>
        <time>2018-03-25T08:43:21Z</time>
      </trkpt>
      <trkpt lat="50.781923225149512" lon="4.442265685647726">
        <ele>1070.2</ele>
        <time>2018-03-25T08:43:22Z</time>
      </trkpt>
      <trkpt lat="50.781902857124805" lon="4.442069632932544">
        <ele>1070.1500000000001</ele>
        <time>2018-03-25T08:43:30Z</time>
      </trkpt>
      <trkpt lat="50.781904449686408" lon="4.442033004015684">
        <ele>1070.1500000000001</ele>
        <time>2018-03-25T08:43:31Z</time>
      </trkpt>
      <trkpt lat="50.781904868781567" lon="4.441995369270444">
        <ele>1070.1500000000001</ele>
        <time>2018-03-25T08:43:32Z</time>
      </trkpt>
      <trkpt lat="50.781904868781567" lon="4.441955555230379">
        <ele>1070.1199999999999</ele>
        <time>2018-03-25T08:43:33Z</time>
      </trkpt>
      <trkpt lat="50.781900007277727" lon="4.441899312660098">
        <ele>1070.0999999999999</ele>
        <time>2018-03-25T08:43:34Z</time>
      </trkpt>
      <trkpt lat="50.781890116631985" lon="4.441833263263106">
        <ele>1070.0999999999999</ele>
        <time>2018-03-25T08:43:35Z</time>
      </trkpt>
      <trkpt lat="50.78179020434618" lon="4.441096493974328">
        <ele>1071.0999999999999</ele>
        <time>2018-03-25T08:43:46Z</time>
      </trkpt>
      <trkpt lat="50.781618878245354" lon="4.440458295866847">
        <ele>1071.0999999999999</ele>
        <time>2018-03-25T08:43:57Z</time>
      </trkpt>
      <trkpt lat="50.781587781384587" lon="4.440321838483214">
        <ele>1071.0899999999999</ele>
        <time>2018-03-25T08:43:59Z</time>
      </trkpt>
      <trkpt lat="50.7815698441118" lon="4.440249502658844">
        <ele>1071.0899999999999</ele>
        <time>2018-03-25T08:44:00Z</time>
      </trkpt>
      <trkpt lat="50.781562300398946" lon="4.440180100500584">
        <ele>1071.0699999999999</ele>
        <time>2018-03-25T08:44:01Z</time>
      </trkpt>
      <trkpt lat="50.781549392268062" lon="4.440098041668534">
        <ele>1071.0599999999999</ele>
        <time>2018-03-25T08:44:02Z</time>
      </trkpt>
      <trkpt lat="50.781538747251034" lon="4.440018832683563">
        <ele>1071.0699999999999</ele>
        <time>2018-03-25T08:44:03Z</time>
      </trkpt>
      <trkpt lat="50.781536735594273" lon="4.439946329221129">
        <ele>1071.0699999999999</ele>
        <time>2018-03-25T08:44:04Z</time>
      </trkpt>
      <trkpt lat="50.781533299013972" lon="4.439878016710281">
        <ele>1071.0599999999999</ele>
        <time>2018-03-25T08:44:05Z</time>
      </trkpt>
      <trkpt lat="50.781522821635008" lon="4.439817415550351">
        <ele>1071.0699999999999</ele>
        <time>2018-03-25T08:44:06Z</time>
      </trkpt>
      <trkpt lat="50.781509159132838" lon="4.439761508256197">
        <ele>1071.0599999999999</ele>
        <time>2018-03-25T08:44:07Z</time>
      </trkpt>
      <trkpt lat="50.781357614323497" lon="4.439389770850539">
        <ele>1071.0599999999999</ele>
        <time>2018-03-25T08:44:16Z</time>
      </trkpt>
      <trkpt lat="50.781347639858723" lon="4.439345514401794">
        <ele>1071.05</ele>
        <time>2018-03-25T08:44:17Z</time>
      </trkpt>
      <trkpt lat="50.781340515241027" lon="4.439289355650544">
        <ele>1071.0699999999999</ele>
        <time>2018-03-25T08:44:18Z</time>
      </trkpt>
      <trkpt lat="50.781325427815318" lon="4.439241662621498">
        <ele>1071.0599999999999</ele>
        <time>2018-03-25T08:44:19Z</time>
      </trkpt>
      <trkpt lat="50.78131134621799" lon="4.439210817217827">
        <ele>1071.0699999999999</ele>
        <time>2018-03-25T08:44:20Z</time>
      </trkpt>
      <trkpt lat="50.781164662912488" lon="4.438818208873272">
        <ele>1071.0799999999999</ele>
        <time>2018-03-25T08:44:31Z</time>
      </trkpt>
      <trkpt lat="50.781001215800643" lon="4.438461810350418">
        <ele>1071.0699999999999</ele>
        <time>2018-03-25T08:44:41Z</time>
      </trkpt>
      <trkpt lat="50.780825866386294" lon="4.437998626381159">
        <ele>1071.0799999999999</ele>
        <time>2018-03-25T08:44:51Z</time>
      </trkpt>
      <trkpt lat="50.780656384304166" lon="4.437328660860658">
        <ele>1072.3099999999999</ele>
        <time>2018-03-25T08:45:02Z</time>
      </trkpt>
      <trkpt lat="50.780432168394327" lon="4.436920126900077">
        <ele>1072.29</ele>
        <time>2018-03-25T08:45:14Z</time>
      </trkpt>
      <trkpt lat="50.780299818143249" lon="4.436660958454013">
        <ele>1073.1300000000001</ele>
        <time>2018-03-25T08:45:28Z</time>
      </trkpt>
      <trkpt lat="50.780145255848765" lon="4.4362782407552">
        <ele>1073.04</ele>
        <time>2018-03-25T08:45:48Z</time>
      </trkpt>
      <trkpt lat="50.780108207836747" lon="4.436203809455037">
        <ele>1069.25</ele>
        <time>2018-03-25T08:45:52Z</time>
      </trkpt>
      <trkpt lat="50.780103346332908" lon="4.436189644038677">
        <ele>1073.9200000000001</ele>
        <time>2018-03-25T08:45:53Z</time>
      </trkpt>
      <trkpt lat="50.779894217848778" lon="4.435799717903137">
        <ele>1071.6300000000001</ele>
        <time>2018-03-25T08:46:16Z</time>
      </trkpt>
      <trkpt lat="50.779699254781008" lon="4.435423286631703">
        <ele>1072.47</ele>
        <time>2018-03-25T08:46:35Z</time>
      </trkpt>
      <trkpt lat="50.779676120728254" lon="4.435368720442057">
        <ele>1070.23</ele>
        <time>2018-03-25T08:46:37Z</time>
      </trkpt>
      <trkpt lat="50.779509069398046" lon="4.435071246698499">
        <ele>1069.3399999999999</ele>
        <time>2018-03-25T08:46:46Z</time>
      </trkpt>
      <trkpt lat="50.779268844053149" lon="4.434740832075477">
        <ele>1069.3499999999999</ele>
        <time>2018-03-25T08:46:56Z</time>
      </trkpt>
      <trkpt lat="50.779159963130951" lon="4.434554586187005">
        <ele>1068.29</ele>
        <time>2018-03-25T08:47:01Z</time>
      </trkpt>
      <trkpt lat="50.779134901240468" lon="4.434525417163968">
        <ele>1068.3</ele>
        <time>2018-03-25T08:47:02Z</time>
      </trkpt>
      <trkpt lat="50.779106570407748" lon="4.434492308646441">
        <ele>1067.46</ele>
        <time>2018-03-25T08:47:03Z</time>
      </trkpt>
      <trkpt lat="50.779088465496898" lon="4.434466157108545">
        <ele>1067.46</ele>
        <time>2018-03-25T08:47:04Z</time>
      </trkpt>
      <trkpt lat="50.779071617871523" lon="4.434437239542604">
        <ele>1067.46</ele>
        <time>2018-03-25T08:47:05Z</time>
      </trkpt>
      <trkpt lat="50.779057452455163" lon="4.434408824890852">
        <ele>1067.4400000000001</ele>
        <time>2018-03-25T08:47:06Z</time>
      </trkpt>
      <trkpt lat="50.778875732794404" lon="4.434077488258481">
        <ele>1065.8099999999999</ele>
        <time>2018-03-25T08:47:16Z</time>
      </trkpt>
      <trkpt lat="50.778655288740993" lon="4.433648670092225">
        <ele>1063.25</ele>
        <time>2018-03-25T08:47:26Z</time>
      </trkpt>
      <trkpt lat="50.778449345380068" lon="4.433375839143992">
        <ele>1062.45</ele>
        <time>2018-03-25T08:47:34Z</time>
      </trkpt>
      <trkpt lat="50.778374159708619" lon="4.433286571875215">
        <ele>1062.49</ele>
        <time>2018-03-25T08:47:38Z</time>
      </trkpt>
      <trkpt lat="50.778241641819477" lon="4.433057243004441">
        <ele>1060.6800000000001</ele>
        <time>2018-03-25T08:47:51Z</time>
      </trkpt>
      <trkpt lat="50.778210796415806" lon="4.432858508080244">
        <ele>1060.6800000000001</ele>
        <time>2018-03-25T08:47:57Z</time>
      </trkpt>
      <trkpt lat="50.778207946568727" lon="4.43283780477941">
        <ele>1060.6900000000001</ele>
        <time>2018-03-25T08:47:58Z</time>
      </trkpt>
      <trkpt lat="50.77813720330596" lon="4.432619120925665">
        <ele>1060.7</ele>
        <time>2018-03-25T08:48:18Z</time>
      </trkpt>
      <trkpt lat="50.778154134750366" lon="4.432486603036523">
        <ele>1060.6900000000001</ele>
        <time>2018-03-25T08:48:37Z</time>
      </trkpt>
      <trkpt lat="50.778133682906628" lon="4.432194661349058">
        <ele>1056.9100000000001</ele>
        <time>2018-03-25T08:48:51Z</time>
      </trkpt>
      <trkpt lat="50.778124462813139" lon="4.432199019938707">
        <ele>1060.6300000000001</ele>
        <time>2018-03-25T08:48:52Z</time>
      </trkpt>
      <trkpt lat="50.778120188042521" lon="4.43215467967093">
        <ele>1060.6099999999999</ele>
        <time>2018-03-25T08:48:55Z</time>
      </trkpt>
      <trkpt lat="50.778107699006796" lon="4.432091815397143">
        <ele>1060.6300000000001</ele>
        <time>2018-03-25T08:48:59Z</time>
      </trkpt>
      <trkpt lat="50.778101244941354" lon="4.431966841220856">
        <ele>1055.02</ele>
        <time>2018-03-25T08:49:05Z</time>
      </trkpt>
      <trkpt lat="50.778099652379751" lon="4.431939935311675">
        <ele>1059.8800000000001</ele>
        <time>2018-03-25T08:49:06Z</time>
      </trkpt>
      <trkpt lat="50.778072578832507" lon="4.431747905910015">
        <ele>1059.8199999999999</ele>
        <time>2018-03-25T08:49:16Z</time>
      </trkpt>
      <trkpt lat="50.778067214414477" lon="4.431731812655926">
        <ele>1059.8199999999999</ele>
        <time>2018-03-25T08:49:17Z</time>
      </trkpt>
      <trkpt lat="50.778034189715981" lon="4.431578675284982">
        <ele>1059.8399999999999</ele>
        <time>2018-03-25T08:49:26Z</time>
      </trkpt>
      <trkpt lat="50.778030250221491" lon="4.431508854031563">
        <ele>1057.5999999999999</ele>
        <time>2018-03-25T08:49:29Z</time>
      </trkpt>
      <trkpt lat="50.778028154745698" lon="4.43144029006362">
        <ele>1057.5899999999999</ele>
        <time>2018-03-25T08:49:31Z</time>
      </trkpt>
      <trkpt lat="50.77802580781281" lon="4.431417239829898">
        <ele>1057.5899999999999</ele>
        <time>2018-03-25T08:49:32Z</time>
      </trkpt>
      <trkpt lat="50.778028909116983" lon="4.431206351146102">
        <ele>1056.78</ele>
        <time>2018-03-25T08:49:44Z</time>
      </trkpt>
      <trkpt lat="50.778017258271575" lon="4.431148432195187">
        <ele>1056.77</ele>
        <time>2018-03-25T08:49:47Z</time>
      </trkpt>
      <trkpt lat="50.778009966015816" lon="4.431131081655622">
        <ele>1056.77</ele>
        <time>2018-03-25T08:49:48Z</time>
      </trkpt>
      <trkpt lat="50.77795447781682" lon="4.430954474955797">
        <ele>1056.03</ele>
        <time>2018-03-25T08:50:00Z</time>
      </trkpt>
      <trkpt lat="50.777943078428507" lon="4.430927820503712">
        <ele>1056.03</ele>
        <time>2018-03-25T08:50:01Z</time>
      </trkpt>
      <trkpt lat="50.777861187234521" lon="4.430744340643287">
        <ele>1055.1900000000001</ele>
        <time>2018-03-25T08:50:09Z</time>
      </trkpt>
      <trkpt lat="50.777801172807813" lon="4.430453069508076">
        <ele>1054.1400000000001</ele>
        <time>2018-03-25T08:50:20Z</time>
      </trkpt>
      <trkpt lat="50.777775608003139" lon="4.430179735645652">
        <ele>1053.24</ele>
        <time>2018-03-25T08:50:34Z</time>
      </trkpt>
      <trkpt lat="50.777617776766419" lon="4.429910006001592">
        <ele>1051.0899999999999</ele>
        <time>2018-03-25T08:50:50Z</time>
      </trkpt>
      <trkpt lat="50.777518954128027" lon="4.429811602458358">
        <ele>1051.0899999999999</ele>
        <time>2018-03-25T08:50:58Z</time>
      </trkpt>
      <trkpt lat="50.777385262772441" lon="4.429831048473716">
        <ele>1050.24</ele>
        <time>2018-03-25T08:51:09Z</time>
      </trkpt>
      <trkpt lat="50.777312340214849" lon="4.429850662127137">
        <ele>1050.28</ele>
        <time>2018-03-25T08:51:15Z</time>
      </trkpt>
      <trkpt lat="50.777299096807837" lon="4.429854014888406">
        <ele>1050.28</ele>
        <time>2018-03-25T08:51:16Z</time>
      </trkpt>
      <trkpt lat="50.777288954705" lon="4.429861474782229">
        <ele>1050.27</ele>
        <time>2018-03-25T08:51:17Z</time>
      </trkpt>
      <trkpt lat="50.777037413790822" lon="4.429933978244662">
        <ele>1048.6099999999999</ele>
        <time>2018-03-25T08:51:34Z</time>
      </trkpt>
      <trkpt lat="50.776889892295003" lon="4.429742954671383">
        <ele>1043.97</ele>
        <time>2018-03-25T08:51:47Z</time>
      </trkpt>
      <trkpt lat="50.77688243240118" lon="4.429716803133488">
        <ele>1048.9000000000001</ele>
        <time>2018-03-25T08:51:48Z</time>
      </trkpt>
      <trkpt lat="50.776870949193835" lon="4.429701128974557">
        <ele>1048.9000000000001</ele>
        <time>2018-03-25T08:51:49Z</time>
      </trkpt>
      <trkpt lat="50.776670286431909" lon="4.429294103756547">
        <ele>1048.9300000000001</ele>
        <time>2018-03-25T08:52:06Z</time>
      </trkpt>
      <trkpt lat="50.776568278670311" lon="4.429077599197626">
        <ele>1048.9400000000001</ele>
        <time>2018-03-25T08:52:18Z</time>
      </trkpt>
      <trkpt lat="50.776479598134756" lon="4.428965197876096">
        <ele>1049.8099999999999</ele>
        <time>2018-03-25T08:52:27Z</time>
      </trkpt>
      <trkpt lat="50.776388654485345" lon="4.428806444630027">
        <ele>1051.4300000000001</ele>
        <time>2018-03-25T08:52:39Z</time>
      </trkpt>
      <trkpt lat="50.776232751086354" lon="4.428607877343893">
        <ele>1053.3</ele>
        <time>2018-03-25T08:52:55Z</time>
      </trkpt>
      <trkpt lat="50.776118170469999" lon="4.428433701395989">
        <ele>1055.1199999999999</ele>
        <time>2018-03-25T08:53:09Z</time>
      </trkpt>
      <trkpt lat="50.776105681434274" lon="4.428419871255755">
        <ele>1055.0999999999999</ele>
        <time>2018-03-25T08:53:10Z</time>
      </trkpt>
      <trkpt lat="50.775968050584197" lon="4.428296657279134">
        <ele>1056.21</ele>
        <time>2018-03-25T08:53:25Z</time>
      </trkpt>
      <trkpt lat="50.775924799963832" lon="4.428211748600006">
        <ele>1057.1099999999999</ele>
        <time>2018-03-25T08:53:30Z</time>
      </trkpt>
      <trkpt lat="50.775850787758827" lon="4.42798325791955">
        <ele>1057.8800000000001</ele>
        <time>2018-03-25T08:53:43Z</time>
      </trkpt>
      <trkpt lat="50.775753390043974" lon="4.427789635956287">
        <ele>1059.5799999999999</ele>
        <time>2018-03-25T08:53:55Z</time>
      </trkpt>
      <trkpt lat="50.775673761963844" lon="4.427660387009382">
        <ele>1059.5799999999999</ele>
        <time>2018-03-25T08:54:03Z</time>
      </trkpt>
      <trkpt lat="50.775554403662682" lon="4.427522588521242">
        <ele>1060.52</ele>
        <time>2018-03-25T08:54:15Z</time>
      </trkpt>
      <trkpt lat="50.775458179414272" lon="4.427255289629102">
        <ele>1061.4000000000001</ele>
        <time>2018-03-25T08:54:28Z</time>
      </trkpt>
      <trkpt lat="50.775369331240654" lon="4.42706904374063">
        <ele>1061.3599999999999</ele>
        <time>2018-03-25T08:54:40Z</time>
      </trkpt>
      <trkpt lat="50.775217786431313" lon="4.42672748118639">
        <ele>1061.3599999999999</ele>
        <time>2018-03-25T08:54:55Z</time>
      </trkpt>
      <trkpt lat="50.775175457820296" lon="4.426624719053507">
        <ele>1061.3599999999999</ele>
        <time>2018-03-25T08:54:58Z</time>
      </trkpt>
      <trkpt lat="50.775161376222968" lon="4.426585910841823">
        <ele>1061.3599999999999</ele>
        <time>2018-03-25T08:54:59Z</time>
      </trkpt>
      <trkpt lat="50.775150395929813" lon="4.426551796495915">
        <ele>1061.3599999999999</ele>
        <time>2018-03-25T08:55:00Z</time>
      </trkpt>
      <trkpt lat="50.775106810033321" lon="4.426365131512284">
        <ele>1061.4100000000001</ele>
        <time>2018-03-25T08:55:06Z</time>
      </trkpt>
      <trkpt lat="50.774979153648019" lon="4.426088109612465">
        <ele>1061.3900000000001</ele>
        <time>2018-03-25T08:55:15Z</time>
      </trkpt>
      <trkpt lat="50.774961719289422" lon="4.426012672483921">
        <ele>1061.3800000000001</ele>
        <time>2018-03-25T08:55:17Z</time>
      </trkpt>
      <trkpt lat="50.774939339607954" lon="4.42598283290863">
        <ele>1061.3800000000001</ele>
        <time>2018-03-25T08:55:18Z</time>
      </trkpt>
      <trkpt lat="50.774924336001277" lon="4.425946371629834">
        <ele>1061.3699999999999</ele>
        <time>2018-03-25T08:55:19Z</time>
      </trkpt>
      <trkpt lat="50.774871027097106" lon="4.425812093541026">
        <ele>1061.3699999999999</ele>
        <time>2018-03-25T08:55:22Z</time>
      </trkpt>
      <trkpt lat="50.77484973706305" lon="4.425769094377756">
        <ele>1061.3599999999999</ele>
        <time>2018-03-25T08:55:23Z</time>
      </trkpt>
      <trkpt lat="50.774824842810631" lon="4.425713522359729">
        <ele>1061.3599999999999</ele>
        <time>2018-03-25T08:55:24Z</time>
      </trkpt>
      <trkpt lat="50.774807492271066" lon="4.425663901492953">
        <ele>1061.3499999999999</ele>
        <time>2018-03-25T08:55:25Z</time>
      </trkpt>
      <trkpt lat="50.774789806455374" lon="4.425613945350051">
        <ele>1061.3599999999999</ele>
        <time>2018-03-25T08:55:26Z</time>
      </trkpt>
      <trkpt lat="50.774773042649031" lon="4.425567761063576">
        <ele>1061.3599999999999</ele>
        <time>2018-03-25T08:55:27Z</time>
      </trkpt>
      <trkpt lat="50.774758122861385" lon="4.425508584827185">
        <ele>1061.3699999999999</ele>
        <time>2018-03-25T08:55:28Z</time>
      </trkpt>
      <trkpt lat="50.774738760665059" lon="4.425468016415834">
        <ele>1061.3699999999999</ele>
        <time>2018-03-25T08:55:29Z</time>
      </trkpt>
      <trkpt lat="50.774724595248699" lon="4.425424681976438">
        <ele>1061.3699999999999</ele>
        <time>2018-03-25T08:55:30Z</time>
      </trkpt>
      <trkpt lat="50.774719817563891" lon="4.425374809652567">
        <ele>1061.3599999999999</ele>
        <time>2018-03-25T08:55:31Z</time>
      </trkpt>
      <trkpt lat="50.774718895554543" lon="4.425353100523353">
        <ele>1061.3599999999999</ele>
        <time>2018-03-25T08:55:32Z</time>
      </trkpt>
      <trkpt lat="50.774706322699785" lon="4.425346478819847">
        <ele>1061.3599999999999</ele>
        <time>2018-03-25T08:55:33Z</time>
      </trkpt>
      <trkpt lat="50.77469089999795" lon="4.425289817154408">
        <ele>1061.3599999999999</ele>
        <time>2018-03-25T08:55:34Z</time>
      </trkpt>
      <trkpt lat="50.774679584428668" lon="4.425256960093975">
        <ele>1061.3499999999999</ele>
        <time>2018-03-25T08:55:35Z</time>
      </trkpt>
      <trkpt lat="50.77467086724937" lon="4.425196526572108">
        <ele>1061.3399999999999</ele>
        <time>2018-03-25T08:55:37Z</time>
      </trkpt>
      <trkpt lat="50.77466600574553" lon="4.425131399184465">
        <ele>1061.3599999999999</ele>
        <time>2018-03-25T08:55:38Z</time>
      </trkpt>
      <trkpt lat="50.774671705439687" lon="4.425089657306671">
        <ele>1061.3499999999999</ele>
        <time>2018-03-25T08:55:39Z</time>
      </trkpt>
      <trkpt lat="50.77466600574553" lon="4.425031654536724">
        <ele>1061.3499999999999</ele>
        <time>2018-03-25T08:55:40Z</time>
      </trkpt>
      <trkpt lat="50.774670951068401" lon="4.424997037276626">
        <ele>1059.05</ele>
        <time>2018-03-25T08:55:41Z</time>
      </trkpt>
      <trkpt lat="50.77467187307775" lon="4.424936100840569">
        <ele>1059.0699999999999</ele>
        <time>2018-03-25T08:55:42Z</time>
      </trkpt>
      <trkpt lat="50.774675561115146" lon="4.424892934039235">
        <ele>1059.0599999999999</ele>
        <time>2018-03-25T08:55:43Z</time>
      </trkpt>
      <trkpt lat="50.774673381820321" lon="4.424849767237902">
        <ele>1059.05</ele>
        <time>2018-03-25T08:55:44Z</time>
      </trkpt>
      <trkpt lat="50.774673130363226" lon="4.424801906570792">
        <ele>1059.04</ele>
        <time>2018-03-25T08:55:45Z</time>
      </trkpt>
      <trkpt lat="50.774675644934177" lon="4.424740551039577">
        <ele>1059.05</ele>
        <time>2018-03-25T08:55:46Z</time>
      </trkpt>
      <trkpt lat="50.774684781208634" lon="4.424699228256941">
        <ele>1059.04</ele>
        <time>2018-03-25T08:55:47Z</time>
      </trkpt>
      <trkpt lat="50.774694252759218" lon="4.424643320962787">
        <ele>1059.05</ele>
        <time>2018-03-25T08:55:48Z</time>
      </trkpt>
      <trkpt lat="50.774698695167899" lon="4.424589006230235">
        <ele>1059.04</ele>
        <time>2018-03-25T08:55:49Z</time>
      </trkpt>
      <trkpt lat="50.774690732359886" lon="4.424528740346432">
        <ele>1059.05</ele>
        <time>2018-03-25T08:55:50Z</time>
      </trkpt>
      <trkpt lat="50.77469777315855" lon="4.424411309882999">
        <ele>1059.05</ele>
        <time>2018-03-25T08:55:52Z</time>
      </trkpt>
      <trkpt lat="50.774698527529836" lon="4.424367640167475">
        <ele>1059.0599999999999</ele>
        <time>2018-03-25T08:55:53Z</time>
      </trkpt>
      <trkpt lat="50.774693163111806" lon="4.424308715388179">
        <ele>1059.05</ele>
        <time>2018-03-25T08:55:54Z</time>
      </trkpt>
      <trkpt lat="50.774688888341188" lon="4.42425599321723">
        <ele>1059.05</ele>
        <time>2018-03-25T08:55:55Z</time>
      </trkpt>
      <trkpt lat="50.774685787037015" lon="4.424212742596865">
        <ele>1059.0599999999999</ele>
        <time>2018-03-25T08:55:56Z</time>
      </trkpt>
      <trkpt lat="50.774680925533175" lon="4.424166725948453">
        <ele>1059.0699999999999</ele>
        <time>2018-03-25T08:55:57Z</time>
      </trkpt>
      <trkpt lat="50.77467430382967" lon="4.424116350710392">
        <ele>1059.0599999999999</ele>
        <time>2018-03-25T08:55:58Z</time>
      </trkpt>
      <trkpt lat="50.774664832279086" lon="4.424058180302382">
        <ele>1059.0699999999999</ele>
        <time>2018-03-25T08:55:59Z</time>
      </trkpt>
      <trkpt lat="50.774655025452375" lon="4.424021886661649">
        <ele>1059.0699999999999</ele>
        <time>2018-03-25T08:56:00Z</time>
      </trkpt>
      <trkpt lat="50.77452233992517" lon="4.423219319432974">
        <ele>1058.2</ele>
        <time>2018-03-25T08:56:13Z</time>
      </trkpt>
      <trkpt lat="50.774509180337191" lon="4.423049837350845">
        <ele>1057.4300000000001</ele>
        <time>2018-03-25T08:56:17Z</time>
      </trkpt>
      <trkpt lat="50.774525105953217" lon="4.422964928671718">
        <ele>1057.4400000000001</ele>
        <time>2018-03-25T08:56:20Z</time>
      </trkpt>
      <trkpt lat="50.774541785940528" lon="4.422929054126144">
        <ele>1057.4400000000001</ele>
        <time>2018-03-25T08:56:21Z</time>
      </trkpt>
      <trkpt lat="50.774556621909142" lon="4.422896364703775">
        <ele>1057.4400000000001</ele>
        <time>2018-03-25T08:56:22Z</time>
      </trkpt>
      <trkpt lat="50.774563159793615" lon="4.422855880111456">
        <ele>1057.4400000000001</ele>
        <time>2018-03-25T08:56:23Z</time>
      </trkpt>
      <trkpt lat="50.7745760679245" lon="4.422826794907451">
        <ele>1057.4400000000001</ele>
        <time>2018-03-25T08:56:24Z</time>
      </trkpt>
      <trkpt lat="50.774588473141193" lon="4.422794776037335">
        <ele>1057.45</ele>
        <time>2018-03-25T08:56:25Z</time>
      </trkpt>
      <trkpt lat="50.77461663633585" lon="4.422419518232346">
        <ele>1057.46</ele>
        <time>2018-03-25T08:56:34Z</time>
      </trkpt>
      <trkpt lat="50.774577241390944" lon="4.42198483273387">
        <ele>1057.4400000000001</ele>
        <time>2018-03-25T08:56:45Z</time>
      </trkpt>
      <trkpt lat="50.774418655782938" lon="4.421416874974966">
        <ele>1055.71</ele>
        <time>2018-03-25T08:56:55Z</time>
      </trkpt>
      <trkpt lat="50.774322766810656" lon="4.420975903049111">
        <ele>1055.72</ele>
        <time>2018-03-25T08:57:05Z</time>
      </trkpt>
      <trkpt lat="50.774271469563246" lon="4.42074959166348">
        <ele>1055.7</ele>
        <time>2018-03-25T08:57:10Z</time>
      </trkpt>
      <trkpt lat="50.774253699928522" lon="4.420657642185688">
        <ele>1055.71</ele>
        <time>2018-03-25T08:57:12Z</time>
      </trkpt>
      <trkpt lat="50.774248838424683" lon="4.420607015490532">
        <ele>1055.71</ele>
        <time>2018-03-25T08:57:13Z</time>
      </trkpt>
      <trkpt lat="50.774099137634039" lon="4.420049367472529">
        <ele>1055.76</ele>
        <time>2018-03-25T08:57:29Z</time>
      </trkpt>
      <trkpt lat="50.773978773504496" lon="4.419655334204435">
        <ele>1055.78</ele>
        <time>2018-03-25T08:57:45Z</time>
      </trkpt>
      <trkpt lat="50.773880453780293" lon="4.419322153553367">
        <ele>1055.77</ele>
        <time>2018-03-25T08:58:02Z</time>
      </trkpt>
      <trkpt lat="50.773840975016356" lon="4.419063152745366">
        <ele>1055.76</ele>
        <time>2018-03-25T08:58:17Z</time>
      </trkpt>
      <trkpt lat="50.773834437131882" lon="4.418999115005136">
        <ele>1060.26</ele>
        <time>2018-03-25T08:58:20Z</time>
      </trkpt>
      <trkpt lat="50.773831084370613" lon="4.418979249894619">
        <ele>1057.96</ele>
        <time>2018-03-25T08:58:21Z</time>
      </trkpt>
      <trkpt lat="50.773827815428376" lon="4.418909093365073">
        <ele>1058.8900000000001</ele>
        <time>2018-03-25T08:58:26Z</time>
      </trkpt>
      <trkpt lat="50.773824211210012" lon="4.41885813139379">
        <ele>1054.3900000000001</ele>
        <time>2018-03-25T08:58:30Z</time>
      </trkpt>
      <trkpt lat="50.773823037743568" lon="4.418846312910318">
        <ele>1057.8</ele>
        <time>2018-03-25T08:58:31Z</time>
      </trkpt>
      <trkpt lat="50.773818511515856" lon="4.418655876070261">
        <ele>1055.3099999999999</ele>
        <time>2018-03-25T08:58:42Z</time>
      </trkpt>
      <trkpt lat="50.773845165967941" lon="4.418388325721026">
        <ele>1055.3199999999999</ele>
        <time>2018-03-25T08:58:59Z</time>
      </trkpt>
      <trkpt lat="50.773857990279794" lon="4.418374327942729">
        <ele>1055.3299999999999</ele>
        <time>2018-03-25T08:59:00Z</time>
      </trkpt>
      <trkpt lat="50.773872323334217" lon="4.418354714289308">
        <ele>1055.3299999999999</ele>
        <time>2018-03-25T08:59:01Z</time>
      </trkpt>
      <trkpt lat="50.773890344426036" lon="4.418326131999493">
        <ele>1055.3299999999999</ele>
        <time>2018-03-25T08:59:02Z</time>
      </trkpt>
      <trkpt lat="50.773903587833047" lon="4.418305261060596">
        <ele>1055.3299999999999</ele>
        <time>2018-03-25T08:59:03Z</time>
      </trkpt>
      <trkpt lat="50.773924794048071" lon="4.418278858065605">
        <ele>1055.3299999999999</ele>
        <time>2018-03-25T08:59:04Z</time>
      </trkpt>
      <trkpt lat="50.773944994434714" lon="4.418257651850581">
        <ele>1055.3299999999999</ele>
        <time>2018-03-25T08:59:05Z</time>
      </trkpt>
      <trkpt lat="50.773961255326867" lon="4.418231500312686">
        <ele>1055.3299999999999</ele>
        <time>2018-03-25T08:59:06Z</time>
      </trkpt>
      <trkpt lat="50.773975253105164" lon="4.418208366259933">
        <ele>1055.3299999999999</ele>
        <time>2018-03-25T08:59:07Z</time>
      </trkpt>
      <trkpt lat="50.77398874796927" lon="4.418181711807847">
        <ele>1055.3299999999999</ele>
        <time>2018-03-25T08:59:08Z</time>
      </trkpt>
      <trkpt lat="50.774014312773943" lon="4.418145921081305">
        <ele>1055.3299999999999</ele>
        <time>2018-03-25T08:59:09Z</time>
      </trkpt>
      <trkpt lat="50.774037782102823" lon="4.418117422610521">
        <ele>1055.3299999999999</ele>
        <time>2018-03-25T08:59:10Z</time>
      </trkpt>
      <trkpt lat="50.774048343300819" lon="4.418090516701341">
        <ele>1055.3399999999999</ele>
        <time>2018-03-25T08:59:11Z</time>
      </trkpt>
      <trkpt lat="50.776612870395184" lon="4.416148513555527">
        <ele>1068.1300000000001</ele>
        <time>2018-03-25T09:02:56Z</time>
      </trkpt>
      <trkpt lat="50.777187785133719" lon="4.415651299059391">
        <ele>1068.9000000000001</ele>
        <time>2018-03-25T09:03:09Z</time>
      </trkpt>
      <trkpt lat="50.777724226936698" lon="4.41435101442039">
        <ele>1069.8099999999999</ele>
        <time>2018-03-25T09:03:49Z</time>
      </trkpt>
      <trkpt lat="50.7791349850595" lon="4.414226459339261">
        <ele>1067.53</ele>
        <time>2018-03-25T09:04:02Z</time>
      </trkpt>
      <trkpt lat="50.779275046661496" lon="4.414105257019401">
        <ele>1065.8499999999999</ele>
        <time>2018-03-25T09:04:18Z</time>
      </trkpt>
      <trkpt lat="50.779415443539619" lon="4.413968045264483">
        <ele>1065.0899999999999</ele>
        <time>2018-03-25T09:04:30Z</time>
      </trkpt>
      <trkpt lat="50.779590373858809" lon="4.413784733042121">
        <ele>1065.0799999999999</ele>
        <time>2018-03-25T09:04:44Z</time>
      </trkpt>
      <trkpt lat="50.779732866212726" lon="4.413653556257486">
        <ele>1065.0899999999999</ele>
        <time>2018-03-25T09:04:55Z</time>
      </trkpt>
      <trkpt lat="50.779806626960635" lon="4.41360292956233">
        <ele>1065.1099999999999</ele>
        <time>2018-03-25T09:05:00Z</time>
      </trkpt>
      <trkpt lat="50.779820121824741" lon="4.413591949269176">
        <ele>1065.1099999999999</ele>
        <time>2018-03-25T09:05:01Z</time>
      </trkpt>
      <trkpt lat="50.780007122084498" lon="4.413437303155661">
        <ele>1065.1099999999999</ele>
        <time>2018-03-25T09:05:15Z</time>
      </trkpt>
      <trkpt lat="50.780052551999688" lon="4.413401009514928">
        <ele>1068.1400000000001</ele>
        <time>2018-03-25T09:05:18Z</time>
      </trkpt>
      <trkpt lat="50.780066130682826" lon="4.413389442488551">
        <ele>1068.1300000000001</ele>
        <time>2018-03-25T09:05:19Z</time>
      </trkpt>
      <trkpt lat="50.780110722407699" lon="4.413347952067852">
        <ele>1065.3599999999999</ele>
        <time>2018-03-25T09:05:23Z</time>
      </trkpt>
      <trkpt lat="50.780124384909868" lon="4.413330936804414">
        <ele>1067.72</ele>
        <time>2018-03-25T09:05:25Z</time>
      </trkpt>
      <trkpt lat="50.780133605003357" lon="4.413319705054164">
        <ele>1067.71</ele>
        <time>2018-03-25T09:05:26Z</time>
      </trkpt>
      <trkpt lat="50.780144333839417" lon="4.413307718932629">
        <ele>1067.71</ele>
        <time>2018-03-25T09:05:27Z</time>
      </trkpt>
      <trkpt lat="50.780155900865793" lon="4.413297073915601">
        <ele>1067.71</ele>
        <time>2018-03-25T09:05:28Z</time>
      </trkpt>
      <trkpt lat="50.780320521444082" lon="4.413168579339981">
        <ele>1067.7</ele>
        <time>2018-03-25T09:05:42Z</time>
      </trkpt>
      <trkpt lat="50.780536942183971" lon="4.412980321794748">
        <ele>1068.47</ele>
        <time>2018-03-25T09:05:57Z</time>
      </trkpt>
      <trkpt lat="50.78069812618196" lon="4.412851827219129">
        <ele>1068.47</ele>
        <time>2018-03-25T09:06:09Z</time>
      </trkpt>
      <trkpt lat="50.780755709856749" lon="4.412808995693922">
        <ele>1066.1700000000001</ele>
        <time>2018-03-25T09:06:13Z</time>
      </trkpt>
      <trkpt lat="50.780865764245391" lon="4.412674298509955">
        <ele>1065.4100000000001</ele>
        <time>2018-03-25T09:06:25Z</time>
      </trkpt>
      <trkpt lat="50.781030133366585" lon="4.412520155310631">
        <ele>1063.76</ele>
        <time>2018-03-25T09:06:37Z</time>
      </trkpt>
      <trkpt lat="50.781051004305482" lon="4.412489142268896">
        <ele>1063.78</ele>
        <time>2018-03-25T09:06:39Z</time>
      </trkpt>
      <trkpt lat="50.781069863587618" lon="4.412475228309631">
        <ele>1063.77</ele>
        <time>2018-03-25T09:06:40Z</time>
      </trkpt>
      <trkpt lat="50.781086711212993" lon="4.412462655454874">
        <ele>1063.77</ele>
        <time>2018-03-25T09:06:41Z</time>
      </trkpt>
      <trkpt lat="50.781120993196964" lon="4.412397360429168">
        <ele>1063.74</ele>
        <time>2018-03-25T09:06:45Z</time>
      </trkpt>
      <trkpt lat="50.781120406463742" lon="4.412375818938017">
        <ele>1063.77</ele>
        <time>2018-03-25T09:06:46Z</time>
      </trkpt>
      <trkpt lat="50.781043544411659" lon="4.412146992981434">
        <ele>1063.78</ele>
        <time>2018-03-25T09:06:59Z</time>
      </trkpt>
      <trkpt lat="50.781021751463413" lon="4.412085134536028">
        <ele>1063.78</ele>
        <time>2018-03-25T09:07:02Z</time>
      </trkpt>
      <trkpt lat="50.780885545536876" lon="4.411667631939054">
        <ele>1063.77</ele>
        <time>2018-03-25T09:07:14Z</time>
      </trkpt>
      <trkpt lat="50.780719416216016" lon="4.411162622272968">
        <ele>1063.78</ele>
        <time>2018-03-25T09:07:24Z</time>
      </trkpt>
      <trkpt lat="50.780671639367938" lon="4.410794908180833">
        <ele>1063.75</ele>
        <time>2018-03-25T09:07:34Z</time>
      </trkpt>
      <trkpt lat="50.7806839607656" lon="4.4107551779598">
        <ele>1063.76</ele>
        <time>2018-03-25T09:07:35Z</time>
      </trkpt>
      <trkpt lat="50.780690079554915" lon="4.410690385848284">
        <ele>1061.5899999999999</ele>
        <time>2018-03-25T09:07:36Z</time>
      </trkpt>
      <trkpt lat="50.78069812618196" lon="4.410644201561809">
        <ele>1061.6099999999999</ele>
        <time>2018-03-25T09:07:37Z</time>
      </trkpt>
      <trkpt lat="50.780707933008671" lon="4.410609332844615">
        <ele>1061.6099999999999</ele>
        <time>2018-03-25T09:07:38Z</time>
      </trkpt>
      <trkpt lat="50.780721427872777" lon="4.410583348944783">
        <ele>1061.5899999999999</ele>
        <time>2018-03-25T09:07:39Z</time>
      </trkpt>
      <trkpt lat="50.780736515298486" lon="4.410548731684685">
        <ele>1061.5999999999999</ele>
        <time>2018-03-25T09:07:40Z</time>
      </trkpt>
      <trkpt lat="50.780759230256081" lon="4.410523502156138">
        <ele>1061.5899999999999</ele>
        <time>2018-03-25T09:07:41Z</time>
      </trkpt>
      <trkpt lat="50.780773814767599" lon="4.410494919866324">
        <ele>1065.8800000000001</ele>
        <time>2018-03-25T09:07:42Z</time>
      </trkpt>
      <trkpt lat="50.78078605234623" lon="4.410464661195874">
        <ele>1063.3900000000001</ele>
        <time>2018-03-25T09:07:43Z</time>
      </trkpt>
      <trkpt lat="50.780816311016679" lon="4.41041705198586">
        <ele>1062.27</ele>
        <time>2018-03-25T09:07:45Z</time>
      </trkpt>
      <trkpt lat="50.781052093952894" lon="4.410155871883035">
        <ele>1060.72</ele>
        <time>2018-03-25T09:07:55Z</time>
      </trkpt>
      <trkpt lat="50.781152760609984" lon="4.410060904920101">
        <ele>1059.4300000000001</ele>
        <time>2018-03-25T09:07:58Z</time>
      </trkpt>
      <trkpt lat="50.781495915725827" lon="4.409806430339813">
        <ele>1059.3699999999999</ele>
        <time>2018-03-25T09:08:07Z</time>
      </trkpt>
      <trkpt lat="50.781533969566226" lon="4.409781200811267">
        <ele>1059.4300000000001</ele>
        <time>2018-03-25T09:08:08Z</time>
      </trkpt>
      <trkpt lat="50.781567078083754" lon="4.409753875806928">
        <ele>1059.4100000000001</ele>
        <time>2018-03-25T09:08:09Z</time>
      </trkpt>
      <trkpt lat="50.781934540718794" lon="4.409495377913117">
        <ele>1057.5899999999999</ele>
        <time>2018-03-25T09:08:19Z</time>
      </trkpt>
      <trkpt lat="50.782306445762515" lon="4.409218523651362">
        <ele>1053.1600000000001</ele>
        <time>2018-03-25T09:08:29Z</time>
      </trkpt>
      <trkpt lat="50.782336117699742" lon="4.409188684076071">
        <ele>1053.1600000000001</ele>
        <time>2018-03-25T09:08:30Z</time>
      </trkpt>
      <trkpt lat="50.782666280865669" lon="4.408925240859389">
        <ele>1050.4000000000001</ele>
        <time>2018-03-25T09:08:42Z</time>
      </trkpt>
      <trkpt lat="50.782873146235943" lon="4.408811833709478">
        <ele>1049.3399999999999</ele>
        <time>2018-03-25T09:08:52Z</time>
      </trkpt>
      <trkpt lat="50.783135164529085" lon="4.408709155395627">
        <ele>1048.3900000000001</ele>
        <time>2018-03-25T09:09:04Z</time>
      </trkpt>
      <trkpt lat="50.783237675204873" lon="4.408646291121841">
        <ele>1044.3099999999999</ele>
        <time>2018-03-25T09:09:11Z</time>
      </trkpt>
      <trkpt lat="50.783246560022235" lon="4.408637909218669">
        <ele>1049.0899999999999</ele>
        <time>2018-03-25T09:09:12Z</time>
      </trkpt>
      <trkpt lat="50.783261731266975" lon="4.408632460981607">
        <ele>1049.0799999999999</ele>
        <time>2018-03-25T09:09:13Z</time>
      </trkpt>
      <trkpt lat="50.783326607197523" lon="4.408605806529522">
        <ele>1046.5799999999999</ele>
        <time>2018-03-25T09:09:20Z</time>
      </trkpt>
      <trkpt lat="50.783427357673645" lon="4.408505894243717">
        <ele>1042.5699999999999</ele>
        <time>2018-03-25T09:09:34Z</time>
      </trkpt>
      <trkpt lat="50.783583847805858" lon="4.408392319455743">
        <ele>1039.04</ele>
        <time>2018-03-25T09:09:49Z</time>
      </trkpt>
      <trkpt lat="50.783649981021881" lon="4.408308165147901">
        <ele>1035.75</ele>
        <time>2018-03-25T09:10:04Z</time>
      </trkpt>
      <trkpt lat="50.783857349306345" lon="4.408201044425368">
        <ele>1033.23</ele>
        <time>2018-03-25T09:10:23Z</time>
      </trkpt>
      <trkpt lat="50.784055665135384" lon="4.408076489344239">
        <ele>1031.5699999999999</ele>
        <time>2018-03-25T09:10:43Z</time>
      </trkpt>
      <trkpt lat="50.784192457795143" lon="4.407973978668451">
        <ele>1030.77</ele>
        <time>2018-03-25T09:10:57Z</time>
      </trkpt>
      <trkpt lat="50.7845573220402" lon="4.407757138833404">
        <ele>1029.05</ele>
        <time>2018-03-25T09:11:17Z</time>
      </trkpt>
      <trkpt lat="50.784776257351041" lon="4.407548597082496">
        <ele>1029.05</ele>
        <time>2018-03-25T09:11:34Z</time>
      </trkpt>
      <trkpt lat="50.784785225987434" lon="4.407521523535252">
        <ele>1029.05</ele>
        <time>2018-03-25T09:11:35Z</time>
      </trkpt>
      <trkpt lat="50.784817663952708" lon="4.407468214631081">
        <ele>1029.04</ele>
        <time>2018-03-25T09:11:37Z</time>
      </trkpt>
      <trkpt lat="50.784977674484253" lon="4.407332763075829">
        <ele>1029.05</ele>
        <time>2018-03-25T09:11:48Z</time>
      </trkpt>
      <trkpt lat="50.785085465759039" lon="4.407116090878844">
        <ele>1029.05</ele>
        <time>2018-03-25T09:11:50Z</time>
      </trkpt>
      <trkpt lat="50.785974785685539" lon="4.404126685112715">
        <ele>1051.3</ele>
        <time>2018-03-25T09:13:07Z</time>
      </trkpt>
      <trkpt lat="50.786136472597718" lon="4.404083350673318">
        <ele>1052.1099999999999</ele>
        <time>2018-03-25T09:13:28Z</time>
      </trkpt>
      <trkpt lat="50.786432940512896" lon="4.403866762295365">
        <ele>1052.1099999999999</ele>
        <time>2018-03-25T09:13:29Z</time>
      </trkpt>
      <trkpt lat="50.785994231700897" lon="4.403383964672685">
        <ele>1052.9000000000001</ele>
        <time>2018-03-25T09:13:51Z</time>
      </trkpt>
      <trkpt lat="50.785893648862839" lon="4.403078528121114">
        <ele>1053.76</ele>
        <time>2018-03-25T09:14:09Z</time>
      </trkpt>
      <trkpt lat="50.785793149843812" lon="4.40284819342196">
        <ele>1054.79</ele>
        <time>2018-03-25T09:14:41Z</time>
      </trkpt>
      <trkpt lat="50.785624338313937" lon="4.402334298938513">
        <ele>1054.77</ele>
        <time>2018-03-25T09:15:03Z</time>
      </trkpt>
      <trkpt lat="50.785452257841825" lon="4.401975637301803">
        <ele>1054.76</ele>
        <time>2018-03-25T09:15:25Z</time>
      </trkpt>
      <trkpt lat="50.785278920084238" lon="4.401586381718516">
        <ele>1054.76</ele>
        <time>2018-03-25T09:15:43Z</time>
      </trkpt>
      <trkpt lat="50.785194598138332" lon="4.401433411985636">
        <ele>1054.74</ele>
        <time>2018-03-25T09:16:04Z</time>
      </trkpt>
      <trkpt lat="50.785046657547355" lon="4.401249093934894">
        <ele>1054.76</ele>
        <time>2018-03-25T09:16:25Z</time>
      </trkpt>
      <trkpt lat="50.7848284766078" lon="4.400820024311543">
        <ele>1054.77</ele>
        <time>2018-03-25T09:16:46Z</time>
      </trkpt>
      <trkpt lat="50.78474541194737" lon="4.400671916082501">
        <ele>1056.4300000000001</ele>
        <time>2018-03-25T09:16:55Z</time>
      </trkpt>
      <trkpt lat="50.784624796360731" lon="4.40038206987083">
        <ele>1056.4100000000001</ele>
        <time>2018-03-25T09:17:15Z</time>
      </trkpt>
      <trkpt lat="50.784564195200801" lon="4.400293892249465">
        <ele>1051.51</ele>
        <time>2018-03-25T09:17:21Z</time>
      </trkpt>
      <trkpt lat="50.784554472193122" lon="4.400280481204391">
        <ele>1056.1199999999999</ele>
        <time>2018-03-25T09:17:22Z</time>
      </trkpt>
      <trkpt lat="50.784471742808819" lon="4.400155255571008">
        <ele>1056.0999999999999</ele>
        <time>2018-03-25T09:17:28Z</time>
      </trkpt>
      <trkpt lat="50.784336542710662" lon="4.39991544932127">
        <ele>1056.0899999999999</ele>
        <time>2018-03-25T09:17:41Z</time>
      </trkpt>
      <trkpt lat="50.784209473058581" lon="4.399767927825451">
        <ele>1056.1099999999999</ele>
        <time>2018-03-25T09:17:52Z</time>
      </trkpt>
      <trkpt lat="50.784095730632544" lon="4.3995426222682">
        <ele>1056.21</ele>
        <time>2018-03-25T09:18:06Z</time>
      </trkpt>
      <trkpt lat="50.78391962684691" lon="4.399254536256194">
        <ele>1056.1600000000001</ele>
        <time>2018-03-25T09:18:22Z</time>
      </trkpt>
      <trkpt lat="50.783776212483644" lon="4.398976089432836">
        <ele>1056.1700000000001</ele>
        <time>2018-03-25T09:18:38Z</time>
      </trkpt>
      <trkpt lat="50.783790210261941" lon="4.398902244865894">
        <ele>1057.3299999999999</ele>
        <time>2018-03-25T09:18:42Z</time>
      </trkpt>
      <trkpt lat="50.78382633626461" lon="4.398559760302305">
        <ele>1057.27</ele>
        <time>2018-03-25T09:18:56Z</time>
      </trkpt>
      <trkpt lat="50.783966230228543" lon="4.398371921852231">
        <ele>1057.22</ele>
        <time>2018-03-25T09:19:12Z</time>
      </trkpt>
      <trkpt lat="50.784028256312013" lon="4.398154076188803">
        <ele>1054.8599999999999</ele>
        <time>2018-03-25T09:19:25Z</time>
      </trkpt>
      <trkpt lat="50.78403303399682" lon="4.398129349574447">
        <ele>1054.8499999999999</ele>
        <time>2018-03-25T09:19:26Z</time>
      </trkpt>
      <trkpt lat="50.784070920199156" lon="4.397853082045913">
        <ele>1053.1199999999999</ele>
        <time>2018-03-25T09:19:39Z</time>
      </trkpt>
      <trkpt lat="50.784103693440557" lon="4.397729365155101">
        <ele>1049.8199999999999</ele>
        <time>2018-03-25T09:19:46Z</time>
      </trkpt>
      <trkpt lat="50.784147866070271" lon="4.397535743191838">
        <ele>1046.73</ele>
        <time>2018-03-25T09:19:58Z</time>
      </trkpt>
      <trkpt lat="50.784152308478951" lon="4.397520152851939">
        <ele>1046.78</ele>
        <time>2018-03-25T09:19:59Z</time>
      </trkpt>
      <trkpt lat="50.78433595597744" lon="4.396383063867688">
        <ele>1045.9000000000001</ele>
        <time>2018-03-25T09:20:58Z</time>
      </trkpt>
      <trkpt lat="50.784337967634201" lon="4.396337633952498">
        <ele>1041.53</ele>
        <time>2018-03-25T09:21:01Z</time>
      </trkpt>
      <trkpt lat="50.784397646784782" lon="4.395911917090416">
        <ele>1047.0699999999999</ele>
        <time>2018-03-25T09:21:19Z</time>
      </trkpt>
      <trkpt lat="50.78440485522151" lon="4.395858943462372">
        <ele>1047.0899999999999</ele>
        <time>2018-03-25T09:21:21Z</time>
      </trkpt>
      <trkpt lat="50.784428659826517" lon="4.395714523270726">
        <ele>1047.1199999999999</ele>
        <time>2018-03-25T09:21:27Z</time>
      </trkpt>
      <trkpt lat="50.78446495346725" lon="4.395408080890775">
        <ele>1047.21</ele>
        <time>2018-03-25T09:21:40Z</time>
      </trkpt>
      <trkpt lat="50.784472580999136" lon="4.3953687697649">
        <ele>1048.1700000000001</ele>
        <time>2018-03-25T09:21:41Z</time>
      </trkpt>
      <trkpt lat="50.784482639282942" lon="4.395331805571914">
        <ele>1048.1800000000001</ele>
        <time>2018-03-25T09:21:42Z</time>
      </trkpt>
      <trkpt lat="50.784489847719669" lon="4.395309761166573">
        <ele>1048.1900000000001</ele>
        <time>2018-03-25T09:21:43Z</time>
      </trkpt>
      <trkpt lat="50.784566542133689" lon="4.39476284198463">
        <ele>1050.75</ele>
        <time>2018-03-25T09:22:05Z</time>
      </trkpt>
      <trkpt lat="50.784566961228848" lon="4.394731493666768">
        <ele>1050.76</ele>
        <time>2018-03-25T09:22:06Z</time>
      </trkpt>
      <trkpt lat="50.78456855379045" lon="4.394647171720862">
        <ele>1050.75</ele>
        <time>2018-03-25T09:22:08Z</time>
      </trkpt>
      <trkpt lat="50.784571738913655" lon="4.394622528925538">
        <ele>1051.6199999999999</ele>
        <time>2018-03-25T09:22:09Z</time>
      </trkpt>
      <trkpt lat="50.784623371437192" lon="4.394414741545916">
        <ele>1052.47</ele>
        <time>2018-03-25T09:22:22Z</time>
      </trkpt>
      <trkpt lat="50.784639632329345" lon="4.394237631931901">
        <ele>1053.3900000000001</ele>
        <time>2018-03-25T09:22:28Z</time>
      </trkpt>
      <trkpt lat="50.784642063081264" lon="4.394213994964957">
        <ele>1053.3699999999999</ele>
        <time>2018-03-25T09:22:29Z</time>
      </trkpt>
      <trkpt lat="50.784643404185772" lon="4.394181640818715">
        <ele>1053.3699999999999</ele>
        <time>2018-03-25T09:22:30Z</time>
      </trkpt>
      <trkpt lat="50.78464524820447" lon="4.394087847322226">
        <ele>1053.3800000000001</ele>
        <time>2018-03-25T09:22:33Z</time>
      </trkpt>
      <trkpt lat="50.784653043374419" lon="4.394070496782661">
        <ele>1053.3699999999999</ele>
        <time>2018-03-25T09:22:34Z</time>
      </trkpt>
      <trkpt lat="50.784689085558057" lon="4.393779393285513">
        <ele>1055.01</ele>
        <time>2018-03-25T09:22:48Z</time>
      </trkpt>
      <trkpt lat="50.784716997295618" lon="4.393601445481181">
        <ele>1055.95</ele>
        <time>2018-03-25T09:22:55Z</time>
      </trkpt>
      <trkpt lat="50.784747507423162" lon="4.393443865701556">
        <ele>1056.26</ele>
        <time>2018-03-25T09:23:01Z</time>
      </trkpt>
      <trkpt lat="50.784747926518321" lon="4.393417965620756">
        <ele>1056.24</ele>
        <time>2018-03-25T09:23:02Z</time>
      </trkpt>
      <trkpt lat="50.784752955660224" lon="4.393397346138954">
        <ele>1056.24</ele>
        <time>2018-03-25T09:23:03Z</time>
      </trkpt>
      <trkpt lat="50.784820429980755" lon="4.393065422773361">
        <ele>1057.1300000000001</ele>
        <time>2018-03-25T09:23:18Z</time>
      </trkpt>
      <trkpt lat="50.784822776913643" lon="4.393033487722278">
        <ele>1057.1300000000001</ele>
        <time>2018-03-25T09:23:19Z</time>
      </trkpt>
      <trkpt lat="50.784823196008801" lon="4.393004402518272">
        <ele>1057.1199999999999</ele>
        <time>2018-03-25T09:23:20Z</time>
      </trkpt>
      <trkpt lat="50.784823698922992" lon="4.392962660640478">
        <ele>1057.1199999999999</ele>
        <time>2018-03-25T09:23:21Z</time>
      </trkpt>
      <trkpt lat="50.784827386960387" lon="4.39293340779841">
        <ele>1057.1199999999999</ele>
        <time>2018-03-25T09:23:22Z</time>
      </trkpt>
      <trkpt lat="50.784831829369068" lon="4.39291630871594">
        <ele>1057.1199999999999</ele>
        <time>2018-03-25T09:23:23Z</time>
      </trkpt>
      <trkpt lat="50.784832751378417" lon="4.392891163006425">
        <ele>1057.1199999999999</ele>
        <time>2018-03-25T09:23:24Z</time>
      </trkpt>
      <trkpt lat="50.78485831618309" lon="4.392698127776384">
        <ele>1057.1199999999999</ele>
        <time>2018-03-25T09:23:32Z</time>
      </trkpt>
      <trkpt lat="50.784860327839851" lon="4.392662923783064">
        <ele>1057.1199999999999</ele>
        <time>2018-03-25T09:23:33Z</time>
      </trkpt>
      <trkpt lat="50.784870302304626" lon="4.392626881599426">
        <ele>1057.1300000000001</ele>
        <time>2018-03-25T09:23:34Z</time>
      </trkpt>
      <trkpt lat="50.784880863502622" lon="4.392587654292584">
        <ele>1058.05</ele>
        <time>2018-03-25T09:23:35Z</time>
      </trkpt>
      <trkpt lat="50.784891340881586" lon="4.39254691824317">
        <ele>1058.05</ele>
        <time>2018-03-25T09:23:36Z</time>
      </trkpt>
      <trkpt lat="50.784902237355709" lon="4.392502661794424">
        <ele>1058.05</ele>
        <time>2018-03-25T09:23:37Z</time>
      </trkpt>
      <trkpt lat="50.784913972020149" lon="4.392462512478232">
        <ele>1058.05</ele>
        <time>2018-03-25T09:23:38Z</time>
      </trkpt>
      <trkpt lat="50.784964514896274" lon="4.391644774004817">
        <ele>1061.8800000000001</ele>
        <time>2018-03-25T09:23:59Z</time>
      </trkpt>
      <trkpt lat="50.785167943686247" lon="4.390599466860294">
        <ele>1061.6900000000001</ele>
        <time>2018-03-25T09:24:15Z</time>
      </trkpt>
      <trkpt lat="50.785272466018796" lon="4.38862276263535">
        <ele>1061.3199999999999</ele>
        <time>2018-03-25T09:25:13Z</time>
      </trkpt>
      <trkpt lat="50.784945487976074" lon="4.389131041243672">
        <ele>1063.6800000000001</ele>
        <time>2018-03-25T09:25:25Z</time>
      </trkpt>
      <trkpt lat="50.784648768603802" lon="4.389050742611289">
        <ele>1064.5</ele>
        <time>2018-03-25T09:25:29Z</time>
      </trkpt>
      <trkpt lat="50.784473167732358" lon="4.388918895274401">
        <ele>1064.5</ele>
        <time>2018-03-25T09:25:33Z</time>
      </trkpt>
      <trkpt lat="50.784342912957072" lon="4.388894503936172">
        <ele>1064.52</ele>
        <time>2018-03-25T09:25:37Z</time>
      </trkpt>
      <trkpt lat="50.784308714792132" lon="4.388860976323485">
        <ele>1065.3699999999999</ele>
        <time>2018-03-25T09:25:38Z</time>
      </trkpt>
      <trkpt lat="50.784287843853235" lon="4.388853432610631">
        <ele>1065.3800000000001</ele>
        <time>2018-03-25T09:25:39Z</time>
      </trkpt>
      <trkpt lat="50.784258591011167" lon="4.388838596642017">
        <ele>1065.3800000000001</ele>
        <time>2018-03-25T09:25:40Z</time>
      </trkpt>
      <trkpt lat="50.784233612939715" lon="4.388834154233336">
        <ele>1065.3699999999999</ele>
        <time>2018-03-25T09:25:41Z</time>
      </trkpt>
      <trkpt lat="50.784205868840218" lon="4.388813953846693">
        <ele>1065.3699999999999</ele>
        <time>2018-03-25T09:25:42Z</time>
      </trkpt>
      <trkpt lat="50.784172592684627" lon="4.388802219182253">
        <ele>1065.4000000000001</ele>
        <time>2018-03-25T09:25:43Z</time>
      </trkpt>
      <trkpt lat="50.784148788079619" lon="4.388794507831335">
        <ele>1066.1400000000001</ele>
        <time>2018-03-25T09:25:44Z</time>
      </trkpt>
      <trkpt lat="50.784122720360756" lon="4.388780258595944">
        <ele>1066.1300000000001</ele>
        <time>2018-03-25T09:25:45Z</time>
      </trkpt>
      <trkpt lat="50.784082403406501" lon="4.388752849772573">
        <ele>1066.1400000000001</ele>
        <time>2018-03-25T09:25:46Z</time>
      </trkpt>
      <trkpt lat="50.784048456698656" lon="4.388743210583925">
        <ele>1066.1300000000001</ele>
        <time>2018-03-25T09:25:47Z</time>
      </trkpt>
      <trkpt lat="50.784008055925369" lon="4.388729464262724">
        <ele>1066.1199999999999</ele>
        <time>2018-03-25T09:25:48Z</time>
      </trkpt>
      <trkpt lat="50.783981820568442" lon="4.388716639950872">
        <ele>1066.1199999999999</ele>
        <time>2018-03-25T09:25:49Z</time>
      </trkpt>
      <trkpt lat="50.783949717879295" lon="4.388689314946532">
        <ele>1066.1199999999999</ele>
        <time>2018-03-25T09:25:50Z</time>
      </trkpt>
      <trkpt lat="50.783908646553755" lon="4.388667354360223">
        <ele>1066.1199999999999</ele>
        <time>2018-03-25T09:25:51Z</time>
      </trkpt>
      <trkpt lat="50.783879477530718" lon="4.388645561411977">
        <ele>1066.1400000000001</ele>
        <time>2018-03-25T09:25:52Z</time>
      </trkpt>
      <trkpt lat="50.783847374841571" lon="4.388618320226669">
        <ele>1067.0999999999999</ele>
        <time>2018-03-25T09:25:53Z</time>
      </trkpt>
      <trkpt lat="50.783431380987167" lon="4.38837063498795">
        <ele>1068.0999999999999</ele>
        <time>2018-03-25T09:26:04Z</time>
      </trkpt>
      <trkpt lat="50.783067857846618" lon="4.388324534520507">
        <ele>1068.04</ele>
        <time>2018-03-25T09:26:18Z</time>
      </trkpt>
      <trkpt lat="50.783050172030926" lon="4.388320008292794">
        <ele>1068.04</ele>
        <time>2018-03-25T09:26:19Z</time>
      </trkpt>
      <trkpt lat="50.782970124855638" lon="4.388286145403981">
        <ele>1068.04</ele>
        <time>2018-03-25T09:26:22Z</time>
      </trkpt>
      <trkpt lat="50.782930143177509" lon="4.388285810127854">
        <ele>1068.8399999999999</ele>
        <time>2018-03-25T09:26:23Z</time>
      </trkpt>
      <trkpt lat="50.782901560887694" lon="4.388295700773597">
        <ele>1068.8399999999999</ele>
        <time>2018-03-25T09:26:24Z</time>
      </trkpt>
      <trkpt lat="50.78279921784997" lon="4.388303076848388">
        <ele>1068.8399999999999</ele>
        <time>2018-03-25T09:26:27Z</time>
      </trkpt>
      <trkpt lat="50.782774826511741" lon="4.388295114040375">
        <ele>1068.8399999999999</ele>
        <time>2018-03-25T09:26:28Z</time>
      </trkpt>
      <trkpt lat="50.782728055492043" lon="4.388298466801643">
        <ele>1068.8399999999999</ele>
        <time>2018-03-25T09:26:29Z</time>
      </trkpt>
      <trkpt lat="50.782569721341133" lon="4.388343477621675">
        <ele>1068.8399999999999</ele>
        <time>2018-03-25T09:26:33Z</time>
      </trkpt>
      <trkpt lat="50.782542983070016" lon="4.388350853696466">
        <ele>1068.8399999999999</ele>
        <time>2018-03-25T09:26:34Z</time>
      </trkpt>
      <trkpt lat="50.782464109361172" lon="4.388362839818001">
        <ele>1068.8499999999999</ele>
        <time>2018-03-25T09:26:37Z</time>
      </trkpt>
      <trkpt lat="50.782216172665358" lon="4.388367030769587">
        <ele>1068.8800000000001</ele>
        <time>2018-03-25T09:26:46Z</time>
      </trkpt>
      <trkpt lat="50.781836891546845" lon="4.388527795672417">
        <ele>1068.8099999999999</ele>
        <time>2018-03-25T09:26:56Z</time>
      </trkpt>
      <trkpt lat="50.781525084748864" lon="4.388647824525833">
        <ele>1068.8</ele>
        <time>2018-03-25T09:27:04Z</time>
      </trkpt>
      <trkpt lat="50.780905745923519" lon="4.388939598575234">
        <ele>1066.52</ele>
        <time>2018-03-25T09:27:25Z</time>
      </trkpt>
      <trkpt lat="50.780779263004661" lon="4.388944711536169">
        <ele>1065.3699999999999</ele>
        <time>2018-03-25T09:27:31Z</time>
      </trkpt>
      <trkpt lat="50.780756967142224" lon="4.388950495049357">
        <ele>1064.53</ele>
        <time>2018-03-25T09:27:32Z</time>
      </trkpt>
      <trkpt lat="50.78073525801301" lon="4.388945633545518">
        <ele>1064.52</ele>
        <time>2018-03-25T09:27:33Z</time>
      </trkpt>
      <trkpt lat="50.78071866184473" lon="4.388953428715468">
        <ele>1064.52</ele>
        <time>2018-03-25T09:27:34Z</time>
      </trkpt>
      <trkpt lat="50.780337452888489" lon="4.389040768146515">
        <ele>1063.01</ele>
        <time>2018-03-25T09:27:52Z</time>
      </trkpt>
      <trkpt lat="50.779965380206704" lon="4.389194827526808">
        <ele>1063.0899999999999</ele>
        <time>2018-03-25T09:28:05Z</time>
      </trkpt>
      <trkpt lat="50.779909053817391" lon="4.389194324612618">
        <ele>1067.0699999999999</ele>
        <time>2018-03-25T09:28:07Z</time>
      </trkpt>
      <trkpt lat="50.779878376051784" lon="4.389210669323802">
        <ele>1067.0599999999999</ele>
        <time>2018-03-25T09:28:08Z</time>
      </trkpt>
      <trkpt lat="50.779824396595359" lon="4.389215782284737">
        <ele>1067.1199999999999</ele>
        <time>2018-03-25T09:28:10Z</time>
      </trkpt>
      <trkpt lat="50.779803693294525" lon="4.389214692637324">
        <ele>1067.0899999999999</ele>
        <time>2018-03-25T09:28:11Z</time>
      </trkpt>
      <trkpt lat="50.77977117151022" lon="4.389200443401933">
        <ele>1067.0799999999999</ele>
        <time>2018-03-25T09:28:12Z</time>
      </trkpt>
      <trkpt lat="50.778732569888234" lon="4.389584502205253">
        <ele>1069.55</ele>
        <time>2018-03-25T09:29:08Z</time>
      </trkpt>
      <trkpt lat="50.778645314276218" lon="4.389579892158508">
        <ele>1069.5699999999999</ele>
        <time>2018-03-25T09:29:12Z</time>
      </trkpt>
      <trkpt lat="50.778626874089241" lon="4.389578802511096">
        <ele>1069.5799999999999</ele>
        <time>2018-03-25T09:29:13Z</time>
      </trkpt>
      <trkpt lat="50.778611116111279" lon="4.389589196071029">
        <ele>1074.3099999999999</ele>
        <time>2018-03-25T09:29:14Z</time>
      </trkpt>
      <trkpt lat="50.778592005372047" lon="4.389602271839976">
        <ele>1071.0699999999999</ele>
        <time>2018-03-25T09:29:15Z</time>
      </trkpt>
      <trkpt lat="50.77857063151896" lon="4.389615682885051">
        <ele>1071.0699999999999</ele>
        <time>2018-03-25T09:29:16Z</time>
      </trkpt>
      <trkpt lat="50.778543222695589" lon="4.389623058959842">
        <ele>1071.0699999999999</ele>
        <time>2018-03-25T09:29:17Z</time>
      </trkpt>
      <trkpt lat="50.778523189947009" lon="4.389642337337136">
        <ele>1071.0799999999999</ele>
        <time>2018-03-25T09:29:18Z</time>
      </trkpt>
      <trkpt lat="50.778503324836493" lon="4.389648037031293">
        <ele>1071.0999999999999</ele>
        <time>2018-03-25T09:29:19Z</time>
      </trkpt>
      <trkpt lat="50.778101161122322" lon="4.389779632911086">
        <ele>1071.0999999999999</ele>
        <time>2018-03-25T09:29:49Z</time>
      </trkpt>
      <trkpt lat="50.777928661555052" lon="4.38992346636951">
        <ele>1071.0699999999999</ele>
        <time>2018-03-25T09:29:59Z</time>
      </trkpt>
      <trkpt lat="50.777898570522666" lon="4.389944169670343">
        <ele>1071.0699999999999</ele>
        <time>2018-03-25T09:30:00Z</time>
      </trkpt>
      <trkpt lat="50.777869317680597" lon="4.389963196590543">
        <ele>1071.0699999999999</ele>
        <time>2018-03-25T09:30:01Z</time>
      </trkpt>
      <trkpt lat="50.777846937999129" lon="4.389971746131778">
        <ele>1071.0599999999999</ele>
        <time>2018-03-25T09:30:02Z</time>
      </trkpt>
      <trkpt lat="50.777730764821172" lon="4.390031173825264">
        <ele>1071.05</ele>
        <time>2018-03-25T09:30:07Z</time>
      </trkpt>
      <trkpt lat="50.777677204459906" lon="4.390054559335113">
        <ele>1073.3199999999999</ele>
        <time>2018-03-25T09:30:10Z</time>
      </trkpt>
      <trkpt lat="50.777653232216835" lon="4.390069814398885">
        <ele>1073.3199999999999</ele>
        <time>2018-03-25T09:30:11Z</time>
      </trkpt>
      <trkpt lat="50.777449049055576" lon="4.390208618715406">
        <ele>1073.3</ele>
        <time>2018-03-25T09:30:25Z</time>
      </trkpt>
      <trkpt lat="50.777318459004164" lon="4.390266286209226">
        <ele>1073.3</ele>
        <time>2018-03-25T09:30:34Z</time>
      </trkpt>
      <trkpt lat="50.777261378243566" lon="4.390307692810893">
        <ele>1073.3099999999999</ele>
        <time>2018-03-25T09:30:39Z</time>
      </trkpt>
      <trkpt lat="50.777099942788482" lon="4.39037692733109">
        <ele>1073.3299999999999</ele>
        <time>2018-03-25T09:30:51Z</time>
      </trkpt>
      <trkpt lat="50.77700262889266" lon="4.39041992649436">
        <ele>1073.3299999999999</ele>
        <time>2018-03-25T09:30:58Z</time>
      </trkpt>
      <trkpt lat="50.776828369125724" lon="4.390518665313721">
        <ele>1073.27</ele>
        <time>2018-03-25T09:31:10Z</time>
      </trkpt>
      <trkpt lat="50.776629131287336" lon="4.390583541244268">
        <ele>1073.26</ele>
        <time>2018-03-25T09:31:25Z</time>
      </trkpt>
      <trkpt lat="50.776524860411882" lon="4.390637604519725">
        <ele>1066.97</ele>
        <time>2018-03-25T09:31:33Z</time>
      </trkpt>
      <trkpt lat="50.776511114090681" lon="4.39065738581121">
        <ele>1072.3499999999999</ele>
        <time>2018-03-25T09:31:34Z</time>
      </trkpt>
      <trkpt lat="50.776432743296027" lon="4.390684878453612">
        <ele>1073.79</ele>
        <time>2018-03-25T09:31:39Z</time>
      </trkpt>
      <trkpt lat="50.776340877637267" lon="4.390638945624232">
        <ele>1071.3800000000001</ele>
        <time>2018-03-25T09:31:46Z</time>
      </trkpt>
      <trkpt lat="50.776323862373829" lon="4.390623020008206">
        <ele>1071.3599999999999</ele>
        <time>2018-03-25T09:31:47Z</time>
      </trkpt>
      <trkpt lat="50.776306679472327" lon="4.390608351677656">
        <ele>1071.3599999999999</ele>
        <time>2018-03-25T09:31:48Z</time>
      </trkpt>
      <trkpt lat="50.77629117295146" lon="4.39061438664794">
        <ele>1071.3599999999999</ele>
        <time>2018-03-25T09:31:49Z</time>
      </trkpt>
      <trkpt lat="50.776253202930093" lon="4.390585301443934">
        <ele>1071.4200000000001</ele>
        <time>2018-03-25T09:31:52Z</time>
      </trkpt>
      <trkpt lat="50.776064107194543" lon="4.390460662543774">
        <ele>1071.4100000000001</ele>
        <time>2018-03-25T09:32:07Z</time>
      </trkpt>
      <trkpt lat="50.775946006178856" lon="4.390413388609886">
        <ele>1075.8900000000001</ele>
        <time>2018-03-25T09:32:15Z</time>
      </trkpt>
      <trkpt lat="50.775930164381862" lon="4.390401402488351">
        <ele>1072.45</ele>
        <time>2018-03-25T09:32:16Z</time>
      </trkpt>
      <trkpt lat="50.775906695052981" lon="4.390392936766148">
        <ele>1071.4100000000001</ele>
        <time>2018-03-25T09:32:18Z</time>
      </trkpt>
      <trkpt lat="50.775719694793224" lon="4.390275087207556">
        <ele>1071.4300000000001</ele>
        <time>2018-03-25T09:32:30Z</time>
      </trkpt>
      <trkpt lat="50.775701338425279" lon="4.390272321179509">
        <ele>1071.4300000000001</ele>
        <time>2018-03-25T09:32:31Z</time>
      </trkpt>
      <trkpt lat="50.775684490799904" lon="4.390275590121746">
        <ele>1071.4400000000001</ele>
        <time>2018-03-25T09:32:32Z</time>
      </trkpt>
      <trkpt lat="50.775667894631624" lon="4.390269387513399">
        <ele>1071.4300000000001</ele>
        <time>2018-03-25T09:32:33Z</time>
      </trkpt>
      <trkpt lat="50.775651047006249" lon="4.390268214046955">
        <ele>1071.4200000000001</ele>
        <time>2018-03-25T09:32:34Z</time>
      </trkpt>
      <trkpt lat="50.775635205209255" lon="4.390272069722414">
        <ele>1071.4300000000001</ele>
        <time>2018-03-25T09:32:35Z</time>
      </trkpt>
      <trkpt lat="50.775619950145483" lon="4.390277182683349">
        <ele>1071.4300000000001</ele>
        <time>2018-03-25T09:32:36Z</time>
      </trkpt>
      <trkpt lat="50.775538729503751" lon="4.390284055843949">
        <ele>1071.4200000000001</ele>
        <time>2018-03-25T09:32:42Z</time>
      </trkpt>
      <trkpt lat="50.775525318458676" lon="4.390281205996871">
        <ele>1071.4400000000001</ele>
        <time>2018-03-25T09:32:43Z</time>
      </trkpt>
      <trkpt lat="50.775487096980214" lon="4.390268633142114">
        <ele>1071.4200000000001</ele>
        <time>2018-03-25T09:32:46Z</time>
      </trkpt>
      <trkpt lat="50.775324907153845" lon="4.390345243737102">
        <ele>1071.4300000000001</ele>
        <time>2018-03-25T09:32:59Z</time>
      </trkpt>
      <trkpt lat="50.775107564404607" lon="4.390418333932757">
        <ele>1071.3900000000001</ele>
        <time>2018-03-25T09:33:15Z</time>
      </trkpt>
      <trkpt lat="50.775067079812288" lon="4.390426464378834">
        <ele>1071.3699999999999</ele>
        <time>2018-03-25T09:33:18Z</time>
      </trkpt>
      <trkpt lat="50.775055764243007" lon="4.390443982556462">
        <ele>1071.3900000000001</ele>
        <time>2018-03-25T09:33:19Z</time>
      </trkpt>
      <trkpt lat="50.775042269378901" lon="4.390461500734091">
        <ele>1071.3900000000001</ele>
        <time>2018-03-25T09:33:20Z</time>
      </trkpt>
      <trkpt lat="50.774969598278403" lon="4.390489915385842">
        <ele>1071.3699999999999</ele>
        <time>2018-03-25T09:33:25Z</time>
      </trkpt>
      <trkpt lat="50.774949816986918" lon="4.390490083023906">
        <ele>1071.4200000000001</ele>
        <time>2018-03-25T09:33:26Z</time>
      </trkpt>
      <trkpt lat="50.774770947173238" lon="4.390610447153449">
        <ele>1070.6500000000001</ele>
        <time>2018-03-25T09:33:39Z</time>
      </trkpt>
      <trkpt lat="50.774626024067402" lon="4.3907839525491">
        <ele>1070.6800000000001</ele>
        <time>2018-03-25T09:33:53Z</time>
      </trkpt>
      <trkpt lat="50.774449501186609" lon="4.390937676653266">
        <ele>1070.6900000000001</ele>
        <time>2018-03-25T09:34:09Z</time>
      </trkpt>
      <trkpt lat="50.774280186742544" lon="4.391097519546747">
        <ele>1070.6800000000001</ele>
        <time>2018-03-25T09:34:23Z</time>
      </trkpt>
      <trkpt lat="50.774078853428364" lon="4.391280496492982">
        <ele>1070.6600000000001</ele>
        <time>2018-03-25T09:34:40Z</time>
      </trkpt>
      <trkpt lat="50.773889757692814" lon="4.391477722674608">
        <ele>1070.6700000000001</ele>
        <time>2018-03-25T09:34:56Z</time>
      </trkpt>
      <trkpt lat="50.773712648078799" lon="4.391710069030523">
        <ele>1069.72</ele>
        <time>2018-03-25T09:35:13Z</time>
      </trkpt>
      <trkpt lat="50.773697895929217" lon="4.391736388206482">
        <ele>1068.96</ele>
        <time>2018-03-25T09:35:15Z</time>
      </trkpt>
      <trkpt lat="50.773597732186317" lon="4.39196839928627">
        <ele>1068.96</ele>
        <time>2018-03-25T09:35:32Z</time>
      </trkpt>
      <trkpt lat="50.773510811850429" lon="4.392154477536678">
        <ele>1068.0899999999999</ele>
        <time>2018-03-25T09:35:49Z</time>
      </trkpt>
      <trkpt lat="50.773406457155943" lon="4.392339047044516">
        <ele>1066.5699999999999</ele>
        <time>2018-03-25T09:36:02Z</time>
      </trkpt>
      <trkpt lat="50.773210320621729" lon="4.392640376463532">
        <ele>1064.8599999999999</ele>
        <time>2018-03-25T09:36:17Z</time>
      </trkpt>
      <trkpt lat="50.773022063076496" lon="4.392895102500916">
        <ele>1064.0599999999999</ele>
        <time>2018-03-25T09:36:32Z</time>
      </trkpt>
      <trkpt lat="50.772922905161977" lon="4.392987722530961">
        <ele>1063.29</ele>
        <time>2018-03-25T09:36:40Z</time>
      </trkpt>
      <trkpt lat="50.772702377289534" lon="4.393157791346312">
        <ele>1062.49</ele>
        <time>2018-03-25T09:36:56Z</time>
      </trkpt>
      <trkpt lat="50.772642698138952" lon="4.393205987289548">
        <ele>1062.49</ele>
        <time>2018-03-25T09:37:00Z</time>
      </trkpt>
      <trkpt lat="50.772456871345639" lon="4.393336828798056">
        <ele>1060.8900000000001</ele>
        <time>2018-03-25T09:37:14Z</time>
      </trkpt>
      <trkpt lat="50.77222284860909" lon="4.3934968393296">
        <ele>1059</ele>
        <time>2018-03-25T09:37:30Z</time>
      </trkpt>
      <trkpt lat="50.771997375413775" lon="4.393589124083519">
        <ele>1057.3900000000001</ele>
        <time>2018-03-25T09:37:44Z</time>
      </trkpt>
      <trkpt lat="50.771873239427805" lon="4.393579065799713">
        <ele>1056.26</ele>
        <time>2018-03-25T09:37:49Z</time>
      </trkpt>
      <trkpt lat="50.771845830604434" lon="4.393572947010398">
        <ele>1056.27</ele>
        <time>2018-03-25T09:37:50Z</time>
      </trkpt>
      <trkpt lat="50.771817918866873" lon="4.393566409125924">
        <ele>1056.27</ele>
        <time>2018-03-25T09:37:51Z</time>
      </trkpt>
      <trkpt lat="50.771789085119963" lon="4.393571019172669">
        <ele>1056.27</ele>
        <time>2018-03-25T09:37:52Z</time>
      </trkpt>
      <trkpt lat="50.771751701831818" lon="4.393566912040114">
        <ele>1056.27</ele>
        <time>2018-03-25T09:37:53Z</time>
      </trkpt>
      <trkpt lat="50.771456323564053" lon="4.393695155158639">
        <ele>1055.3499999999999</ele>
        <time>2018-03-25T09:38:02Z</time>
      </trkpt>
      <trkpt lat="50.771427405998111" lon="4.393723569810391">
        <ele>1055.3800000000001</ele>
        <time>2018-03-25T09:38:03Z</time>
      </trkpt>
      <trkpt lat="50.771400248631835" lon="4.393753241747618">
        <ele>1055.3699999999999</ele>
        <time>2018-03-25T09:38:04Z</time>
      </trkpt>
      <trkpt lat="50.771071929484606" lon="4.394059348851442">
        <ele>1054.5799999999999</ele>
        <time>2018-03-25T09:38:14Z</time>
      </trkpt>
      <trkpt lat="50.770771522074938" lon="4.394481293857098">
        <ele>1053.8099999999999</ele>
        <time>2018-03-25T09:38:24Z</time>
      </trkpt>
      <trkpt lat="50.770483519881964" lon="4.394737528637052">
        <ele>1051.3099999999999</ele>
        <time>2018-03-25T09:38:34Z</time>
      </trkpt>
      <trkpt lat="50.770348906517029" lon="4.39480290748179">
        <ele>1049.9300000000001</ele>
        <time>2018-03-25T09:38:39Z</time>
      </trkpt>
      <trkpt lat="50.769855380058289" lon="4.394933748990297">
        <ele>1048.3099999999999</ele>
        <time>2018-03-25T09:38:56Z</time>
      </trkpt>
      <trkpt lat="50.769715150818229" lon="4.395007509738207">
        <ele>1047.3499999999999</ele>
        <time>2018-03-25T09:39:00Z</time>
      </trkpt>
      <trkpt lat="50.769615992903709" lon="4.395134327933192">
        <ele>1047.3599999999999</ele>
        <time>2018-03-25T09:39:03Z</time>
      </trkpt>
      <trkpt lat="50.76957986690104" lon="4.395199539139867">
        <ele>1047.3599999999999</ele>
        <time>2018-03-25T09:39:04Z</time>
      </trkpt>
      <trkpt lat="50.769548770040274" lon="4.395264415070415">
        <ele>1047.3599999999999</ele>
        <time>2018-03-25T09:39:05Z</time>
      </trkpt>
      <trkpt lat="50.769520523026586" lon="4.395336415618658">
        <ele>1047.3599999999999</ele>
        <time>2018-03-25T09:39:06Z</time>
      </trkpt>
      <trkpt lat="50.769498981535435" lon="4.39539659768343">
        <ele>1047.3699999999999</ele>
        <time>2018-03-25T09:39:07Z</time>
      </trkpt>
      <trkpt lat="50.769438548013568" lon="4.395582089200616">
        <ele>1049.9300000000001</ele>
        <time>2018-03-25T09:39:10Z</time>
      </trkpt>
      <trkpt lat="50.769301252439618" lon="4.395998837426305">
        <ele>1051.51</ele>
        <time>2018-03-25T09:39:20Z</time>
      </trkpt>
      <trkpt lat="50.769121460616589" lon="4.396170163527131">
        <ele>1053.4300000000001</ele>
        <time>2018-03-25T09:39:33Z</time>
      </trkpt>
      <trkpt lat="50.768898166716099" lon="4.39644861035049">
        <ele>1054.47</ele>
        <time>2018-03-25T09:39:46Z</time>
      </trkpt>
      <trkpt lat="50.768657186999917" lon="4.396704593673348">
        <ele>1056.1400000000001</ele>
        <time>2018-03-25T09:40:01Z</time>
      </trkpt>
      <trkpt lat="50.768504468724132" lon="4.396887235343456">
        <ele>1056.1300000000001</ele>
        <time>2018-03-25T09:40:14Z</time>
      </trkpt>
      <trkpt lat="50.76835191808641" lon="4.397003157064319">
        <ele>1057.0799999999999</ele>
        <time>2018-03-25T09:40:28Z</time>
      </trkpt>
      <trkpt lat="50.76821705326438" lon="4.397114720195532">
        <ele>1057.0999999999999</ele>
        <time>2018-03-25T09:40:38Z</time>
      </trkpt>
      <trkpt lat="50.768200121819973" lon="4.397130981087685">
        <ele>1057.0999999999999</ele>
        <time>2018-03-25T09:40:39Z</time>
      </trkpt>
      <trkpt lat="50.768182352185249" lon="4.397138860076666">
        <ele>1057.0999999999999</ele>
        <time>2018-03-25T09:40:40Z</time>
      </trkpt>
      <trkpt lat="50.767853278666735" lon="4.39750162884593">
        <ele>1057.9200000000001</ele>
        <time>2018-03-25T09:41:08Z</time>
      </trkpt>
      <trkpt lat="50.767751857638359" lon="4.397603049874306">
        <ele>1057.9300000000001</ele>
        <time>2018-03-25T09:41:16Z</time>
      </trkpt>
      <trkpt lat="50.767731657251716" lon="4.39762526191771">
        <ele>1057.9300000000001</ele>
        <time>2018-03-25T09:41:18Z</time>
      </trkpt>
      <trkpt lat="50.767720844596624" lon="4.39764185808599">
        <ele>1057.9300000000001</ele>
        <time>2018-03-25T09:41:19Z</time>
      </trkpt>
      <trkpt lat="50.767687987536192" lon="4.397657951340079">
        <ele>1057.9300000000001</ele>
        <time>2018-03-25T09:41:21Z</time>
      </trkpt>
      <trkpt lat="50.767670972272754" lon="4.397672787308693">
        <ele>1057.9300000000001</ele>
        <time>2018-03-25T09:41:22Z</time>
      </trkpt>
      <trkpt lat="50.767547506839037" lon="4.397839838638902">
        <ele>1057.9200000000001</ele>
        <time>2018-03-25T09:41:34Z</time>
      </trkpt>
      <trkpt lat="50.767425214871764" lon="4.397996915504336">
        <ele>1057.9100000000001</ele>
        <time>2018-03-25T09:41:43Z</time>
      </trkpt>
      <trkpt lat="50.767407864332199" lon="4.398015774786472">
        <ele>1057.9000000000001</ele>
        <time>2018-03-25T09:41:44Z</time>
      </trkpt>
      <trkpt lat="50.767390346154571" lon="4.398038741201162">
        <ele>1057.9000000000001</ele>
        <time>2018-03-25T09:41:45Z</time>
      </trkpt>
      <trkpt lat="50.767177864909172" lon="4.398274356499314">
        <ele>1057.9300000000001</ele>
        <time>2018-03-25T09:41:59Z</time>
      </trkpt>
      <trkpt lat="50.76707317493856" lon="4.398531764745712">
        <ele>1055.51</ele>
        <time>2018-03-25T09:42:14Z</time>
      </trkpt>
      <trkpt lat="50.767049873247743" lon="4.39869336783886">
        <ele>1055.51</ele>
        <time>2018-03-25T09:42:22Z</time>
      </trkpt>
      <trkpt lat="50.767039814963937" lon="4.398733014240861">
        <ele>1055.5</ele>
        <time>2018-03-25T09:42:23Z</time>
      </trkpt>
      <trkpt lat="50.766800763085485" lon="4.399229725822806">
        <ele>1048.77</ele>
        <time>2018-03-25T09:42:55Z</time>
      </trkpt>
      <trkpt lat="50.766723062843084" lon="4.399344557896256">
        <ele>1047.21</ele>
        <time>2018-03-25T09:43:01Z</time>
      </trkpt>
      <trkpt lat="50.766509994864464" lon="4.399558966979384">
        <ele>1047.25</ele>
        <time>2018-03-25T09:43:14Z</time>
      </trkpt>
      <trkpt lat="50.766300112009048" lon="4.399684527888894">
        <ele>1050.53</ele>
        <time>2018-03-25T09:43:26Z</time>
      </trkpt>
      <trkpt lat="50.766282258555293" lon="4.399695172905922">
        <ele>1050.53</ele>
        <time>2018-03-25T09:43:27Z</time>
      </trkpt>
      <trkpt lat="50.765998363494873" lon="4.399804640561342">
        <ele>1053.53</ele>
        <time>2018-03-25T09:43:38Z</time>
      </trkpt>
      <trkpt lat="50.765966176986694" lon="4.399797348305583">
        <ele>1053.52</ele>
        <time>2018-03-25T09:43:39Z</time>
      </trkpt>
      <trkpt lat="50.765940193086863" lon="4.399790810421109">
        <ele>1053.55</ele>
        <time>2018-03-25T09:43:40Z</time>
      </trkpt>
      <trkpt lat="50.765917310491204" lon="4.399794917553663">
        <ele>1053.52</ele>
        <time>2018-03-25T09:43:41Z</time>
      </trkpt>
      <trkpt lat="50.765894176438451" lon="4.399789804592729">
        <ele>1053.52</ele>
        <time>2018-03-25T09:43:42Z</time>
      </trkpt>
      <trkpt lat="50.765869617462158" lon="4.399796174839139">
        <ele>1053.52</ele>
        <time>2018-03-25T09:43:43Z</time>
      </trkpt>
      <trkpt lat="50.765853188931942" lon="4.399794079363346">
        <ele>1054.45</ele>
        <time>2018-03-25T09:43:44Z</time>
      </trkpt>
      <trkpt lat="50.765572311356664" lon="4.399744709953666">
        <ele>1055.45</ele>
        <time>2018-03-25T09:43:55Z</time>
      </trkpt>
      <trkpt lat="50.765128908678889" lon="4.399816291406751">
        <ele>1058.25</ele>
        <time>2018-03-25T09:44:08Z</time>
      </trkpt>
      <trkpt lat="50.764811486005783" lon="4.399985102936626">
        <ele>1061.1300000000001</ele>
        <time>2018-03-25T09:44:19Z</time>
      </trkpt>
      <trkpt lat="50.764426421374083" lon="4.400259023532271">
        <ele>1062.0599999999999</ele>
        <time>2018-03-25T09:44:31Z</time>
      </trkpt>
      <trkpt lat="50.764046469703317" lon="4.400476701557636">
        <ele>1063.23</ele>
        <time>2018-03-25T09:44:41Z</time>
      </trkpt>
      <trkpt lat="50.763844884932041" lon="4.400664875283837">
        <ele>1064.0899999999999</ele>
        <time>2018-03-25T09:44:53Z</time>
      </trkpt>
      <trkpt lat="50.763631733134389" lon="4.400872411206365">
        <ele>1064.0899999999999</ele>
        <time>2018-03-25T09:45:05Z</time>
      </trkpt>
      <trkpt lat="50.763428723439574" lon="4.400992188602686">
        <ele>1064.0599999999999</ele>
        <time>2018-03-25T09:45:18Z</time>
      </trkpt>
      <trkpt lat="50.763309113681316" lon="4.401066619902849">
        <ele>1064.0699999999999</ele>
        <time>2018-03-25T09:45:27Z</time>
      </trkpt>
      <trkpt lat="50.763066625222564" lon="4.401405584067106">
        <ele>1061.77</ele>
        <time>2018-03-25T09:45:51Z</time>
      </trkpt>
      <trkpt lat="50.763057405129075" lon="4.401421174407005">
        <ele>1061.78</ele>
        <time>2018-03-25T09:45:52Z</time>
      </trkpt>
      <trkpt lat="50.763038713485003" lon="4.401469873264432">
        <ele>1061.78</ele>
        <time>2018-03-25T09:45:53Z</time>
      </trkpt>
      <trkpt lat="50.762938214465976" lon="4.401621082797647">
        <ele>1061.79</ele>
        <time>2018-03-25T09:46:00Z</time>
      </trkpt>
      <trkpt lat="50.762882474809885" lon="4.401773298159242">
        <ele>1060.6900000000001</ele>
        <time>2018-03-25T09:46:13Z</time>
      </trkpt>
      <trkpt lat="50.762767726555467" lon="4.402055013924837">
        <ele>1060.7</ele>
        <time>2018-03-25T09:46:26Z</time>
      </trkpt>
      <trkpt lat="50.762539403513074" lon="4.40239473246038">
        <ele>1058.97</ele>
        <time>2018-03-25T09:46:46Z</time>
      </trkpt>
      <trkpt lat="50.762414680793881" lon="4.402802595868707">
        <ele>1058.0999999999999</ele>
        <time>2018-03-25T09:47:05Z</time>
      </trkpt>
      <trkpt lat="50.762212509289384" lon="4.403168885037303">
        <ele>1056.3599999999999</ele>
        <time>2018-03-25T09:47:23Z</time>
      </trkpt>
      <trkpt lat="50.762196248397231" lon="4.403292015194893">
        <ele>1056.3699999999999</ele>
        <time>2018-03-25T09:47:31Z</time>
      </trkpt>
      <trkpt lat="50.76209893450141" lon="4.403492342680693">
        <ele>1054.76</ele>
        <time>2018-03-25T09:47:46Z</time>
      </trkpt>
      <trkpt lat="50.762083008885384" lon="4.403511704877019">
        <ele>1054.77</ele>
        <time>2018-03-25T09:47:47Z</time>
      </trkpt>
      <trkpt lat="50.761884357780218" lon="4.403766011819243">
        <ele>1053.9400000000001</ele>
        <time>2018-03-25T09:48:01Z</time>
      </trkpt>
      <trkpt lat="50.76172174885869" lon="4.404053930193186">
        <ele>1052.0799999999999</ele>
        <time>2018-03-25T09:48:14Z</time>
      </trkpt>
      <trkpt lat="50.761716468259692" lon="4.404070107266307">
        <ele>1052.0799999999999</ele>
        <time>2018-03-25T09:48:15Z</time>
      </trkpt>
      <trkpt lat="50.76169484294951" lon="4.40412106923759">
        <ele>1052.0799999999999</ele>
        <time>2018-03-25T09:48:18Z</time>
      </trkpt>
      <trkpt lat="50.761551596224308" lon="4.404339082539082">
        <ele>1051.1300000000001</ele>
        <time>2018-03-25T09:48:34Z</time>
      </trkpt>
      <trkpt lat="50.761387143284082" lon="4.404559191316366">
        <ele>1050.23</ele>
        <time>2018-03-25T09:48:53Z</time>
      </trkpt>
      <trkpt lat="50.761266862973571" lon="4.40470109693706">
        <ele>1050.23</ele>
        <time>2018-03-25T09:49:01Z</time>
      </trkpt>
      <trkpt lat="50.761102493852377" lon="4.404835123568773">
        <ele>1049.4000000000001</ele>
        <time>2018-03-25T09:49:14Z</time>
      </trkpt>
      <trkpt lat="50.760795967653394" lon="4.405013825744391">
        <ele>1048.6199999999999</ele>
        <time>2018-03-25T09:49:34Z</time>
      </trkpt>
      <trkpt lat="50.76077769510448" lon="4.405017346143723">
        <ele>1048.6199999999999</ele>
        <time>2018-03-25T09:49:35Z</time>
      </trkpt>
      <trkpt lat="50.760740311816335" lon="4.40503092482686">
        <ele>1048.6199999999999</ele>
        <time>2018-03-25T09:49:37Z</time>
      </trkpt>
      <trkpt lat="50.760723799467087" lon="4.405029583722353">
        <ele>1048.6199999999999</ele>
        <time>2018-03-25T09:49:38Z</time>
      </trkpt>
      <trkpt lat="50.760706700384617" lon="4.405031427741051">
        <ele>1048.6199999999999</ele>
        <time>2018-03-25T09:49:39Z</time>
      </trkpt>
      <trkpt lat="50.760685661807656" lon="4.405036792159081">
        <ele>1048.6199999999999</ele>
        <time>2018-03-25T09:49:40Z</time>
      </trkpt>
      <trkpt lat="50.76045666821301" lon="4.405067889019847">
        <ele>1048.6199999999999</ele>
        <time>2018-03-25T09:49:54Z</time>
      </trkpt>
      <trkpt lat="50.760254831984639" lon="4.405211387202144">
        <ele>1048.6199999999999</ele>
        <time>2018-03-25T09:50:08Z</time>
      </trkpt>
      <trkpt lat="50.760023072361946" lon="4.405255140736699">
        <ele>1047.79</ele>
        <time>2018-03-25T09:50:22Z</time>
      </trkpt>
      <trkpt lat="50.759860882535577" lon="4.405231084674597">
        <ele>1046.95</ele>
        <time>2018-03-25T09:50:33Z</time>
      </trkpt>
      <trkpt lat="50.759667847305536" lon="4.405287830159068">
        <ele>1046.95</ele>
        <time>2018-03-25T09:50:43Z</time>
      </trkpt>
      <trkpt lat="50.759462071582675" lon="4.405513470992446">
        <ele>1045.1800000000001</ele>
        <time>2018-03-25T09:51:01Z</time>
      </trkpt>
      <trkpt lat="50.759418401867151" lon="4.405509196221829">
        <ele>1043.8</ele>
        <time>2018-03-25T09:51:04Z</time>
      </trkpt>
      <trkpt lat="50.759405409917235" lon="4.405503831803799">
        <ele>1043.79</ele>
        <time>2018-03-25T09:51:05Z</time>
      </trkpt>
      <trkpt lat="50.759389316663146" lon="4.405497377738357">
        <ele>1043.79</ele>
        <time>2018-03-25T09:51:06Z</time>
      </trkpt>
      <trkpt lat="50.759374983608723" lon="4.405490588396788">
        <ele>1043.9100000000001</ele>
        <time>2018-03-25T09:51:07Z</time>
      </trkpt>
      <trkpt lat="50.759361740201712" lon="4.405484385788441">
        <ele>1043.9000000000001</ele>
        <time>2018-03-25T09:51:08Z</time>
      </trkpt>
      <trkpt lat="50.759344892576337" lon="4.405489163473249">
        <ele>1043.9100000000001</ele>
        <time>2018-03-25T09:51:09Z</time>
      </trkpt>
      <trkpt lat="50.75933089479804" lon="4.405486648902297">
        <ele>1042.8800000000001</ele>
        <time>2018-03-25T09:51:10Z</time>
      </trkpt>
      <trkpt lat="50.759260905906558" lon="4.405420515686274">
        <ele>1041.6099999999999</ele>
        <time>2018-03-25T09:51:16Z</time>
      </trkpt>
      <trkpt lat="50.759112378582358" lon="4.405184146016836">
        <ele>1040.98</ele>
        <time>2018-03-25T09:51:27Z</time>
      </trkpt>
      <trkpt lat="50.759058315306902" lon="4.405010137706995">
        <ele>1043.55</ele>
        <time>2018-03-25T09:51:35Z</time>
      </trkpt>
      <trkpt lat="50.75895756483078" lon="4.404723141342402">
        <ele>1043.54</ele>
        <time>2018-03-25T09:51:47Z</time>
      </trkpt>
      <trkpt lat="50.758942309767008" lon="4.404701599851251">
        <ele>1043.54</ele>
        <time>2018-03-25T09:51:48Z</time>
      </trkpt>
      <trkpt lat="50.758929401636124" lon="4.404679639264941">
        <ele>1043.55</ele>
        <time>2018-03-25T09:51:49Z</time>
      </trkpt>
      <trkpt lat="50.758872823789716" lon="4.404614176601172">
        <ele>1043.55</ele>
        <time>2018-03-25T09:51:54Z</time>
      </trkpt>
      <trkpt lat="50.758662521839142" lon="4.404298011213541">
        <ele>1044.3399999999999</ele>
        <time>2018-03-25T09:52:14Z</time>
      </trkpt>
      <trkpt lat="50.758500332012773" lon="4.404045296832919">
        <ele>1044.3</ele>
        <time>2018-03-25T09:52:30Z</time>
      </trkpt>
      <trkpt lat="50.758383320644498" lon="4.403773723170161">
        <ele>1044.3499999999999</ele>
        <time>2018-03-25T09:52:44Z</time>
      </trkpt>
      <trkpt lat="50.75786598958075" lon="4.403458312153816">
        <ele>1041.0699999999999</ele>
        <time>2018-03-25T09:53:21Z</time>
      </trkpt>
      <trkpt lat="50.757848722860217" lon="4.403472058475018">
        <ele>1041.0599999999999</ele>
        <time>2018-03-25T09:53:22Z</time>
      </trkpt>
      <trkpt lat="50.757806310430169" lon="4.403484212234616">
        <ele>1041.0799999999999</ele>
        <time>2018-03-25T09:53:25Z</time>
      </trkpt>
      <trkpt lat="50.757790803909302" lon="4.403477171435952">
        <ele>1041.0999999999999</ele>
        <time>2018-03-25T09:53:26Z</time>
      </trkpt>
      <trkpt lat="50.757698686793447" lon="4.403478344902396">
        <ele>1041.1400000000001</ele>
        <time>2018-03-25T09:53:31Z</time>
      </trkpt>
      <trkpt lat="50.757676893845201" lon="4.403465520590544">
        <ele>1041.1199999999999</ele>
        <time>2018-03-25T09:53:32Z</time>
      </trkpt>
      <trkpt lat="50.757465753704309" lon="4.403517404571176">
        <ele>1041.1800000000001</ele>
        <time>2018-03-25T09:53:44Z</time>
      </trkpt>
      <trkpt lat="50.757203232496977" lon="4.403391256928444">
        <ele>1041.1800000000001</ele>
        <time>2018-03-25T09:53:57Z</time>
      </trkpt>
      <trkpt lat="50.757001815363765" lon="4.403375750407577">
        <ele>1041.25</ele>
        <time>2018-03-25T09:54:11Z</time>
      </trkpt>
      <trkpt lat="50.756896790117025" lon="4.403338618576527">
        <ele>1041.1800000000001</ele>
        <time>2018-03-25T09:54:18Z</time>
      </trkpt>
      <trkpt lat="50.756854712963104" lon="4.403333924710751">
        <ele>1041.25</ele>
        <time>2018-03-25T09:54:21Z</time>
      </trkpt>
      <trkpt lat="50.756839290261269" lon="4.403325794264674">
        <ele>1043.73</ele>
        <time>2018-03-25T09:54:22Z</time>
      </trkpt>
      <trkpt lat="50.756823280826211" lon="4.403321351855993">
        <ele>1043.72</ele>
        <time>2018-03-25T09:54:23Z</time>
      </trkpt>
      <trkpt lat="50.756808947771788" lon="4.403320513665676">
        <ele>1043.73</ele>
        <time>2018-03-25T09:54:24Z</time>
      </trkpt>
      <trkpt lat="50.756685733795166" lon="4.403293188661337">
        <ele>1045.01</ele>
        <time>2018-03-25T09:54:34Z</time>
      </trkpt>
      <trkpt lat="50.756454560905695" lon="4.403221691027284">
        <ele>1046.8</ele>
        <time>2018-03-25T09:54:53Z</time>
      </trkpt>
      <trkpt lat="50.75624174438417" lon="4.403202831745148">
        <ele>1046.74</ele>
        <time>2018-03-25T09:55:06Z</time>
      </trkpt>
      <trkpt lat="50.75598475523293" lon="4.403266366571188">
        <ele>1048.4000000000001</ele>
        <time>2018-03-25T09:55:20Z</time>
      </trkpt>
      <trkpt lat="50.755822816863656" lon="4.40328698605299">
        <ele>1048.3299999999999</ele>
        <time>2018-03-25T09:55:32Z</time>
      </trkpt>
      <trkpt lat="50.755598349496722" lon="4.403191767632961">
        <ele>1048.3199999999999</ele>
        <time>2018-03-25T09:55:44Z</time>
      </trkpt>
      <trkpt lat="50.755501203238964" lon="4.403108116239309">
        <ele>1048.3499999999999</ele>
        <time>2018-03-25T09:55:49Z</time>
      </trkpt>
      <trkpt lat="50.755484439432621" lon="4.403089927509427">
        <ele>1048.3399999999999</ele>
        <time>2018-03-25T09:55:50Z</time>
      </trkpt>
      <trkpt lat="50.755288051441312" lon="4.402820197865367">
        <ele>1049.49</ele>
        <time>2018-03-25T09:56:05Z</time>
      </trkpt>
      <trkpt lat="50.755207417532802" lon="4.402735037729144">
        <ele>1049.46</ele>
        <time>2018-03-25T09:56:09Z</time>
      </trkpt>
      <trkpt lat="50.755035169422626" lon="4.40256186760962">
        <ele>1049.45</ele>
        <time>2018-03-25T09:56:17Z</time>
      </trkpt>
      <trkpt lat="50.754988230764866" lon="4.402502020820975">
        <ele>1049.4300000000001</ele>
        <time>2018-03-25T09:56:19Z</time>
      </trkpt>
      <trkpt lat="50.754970712587237" lon="4.402485173195601">
        <ele>1049.4300000000001</ele>
        <time>2018-03-25T09:56:20Z</time>
      </trkpt>
      <trkpt lat="50.75494397431612" lon="4.402450975030661">
        <ele>1049.4200000000001</ele>
        <time>2018-03-25T09:56:21Z</time>
      </trkpt>
      <trkpt lat="50.754918912425637" lon="4.402427840977907">
        <ele>1049.4400000000001</ele>
        <time>2018-03-25T09:56:22Z</time>
      </trkpt>
      <trkpt lat="50.754886642098427" lon="4.402393056079745">
        <ele>1049.4300000000001</ele>
        <time>2018-03-25T09:56:23Z</time>
      </trkpt>
      <trkpt lat="50.754850935190916" lon="4.402358774095774">
        <ele>1049.4100000000001</ele>
        <time>2018-03-25T09:56:24Z</time>
      </trkpt>
      <trkpt lat="50.754812881350517" lon="4.402323821559548">
        <ele>1049.4100000000001</ele>
        <time>2018-03-25T09:56:25Z</time>
      </trkpt>
      <trkpt lat="50.754774240776896" lon="4.402283588424325">
        <ele>1049.4100000000001</ele>
        <time>2018-03-25T09:56:26Z</time>
      </trkpt>
      <trkpt lat="50.754743814468384" lon="4.402255592867732">
        <ele>1049.4300000000001</ele>
        <time>2018-03-25T09:56:27Z</time>
      </trkpt>
      <trkpt lat="50.754716908559203" lon="4.402237068861723">
        <ele>1049.4300000000001</ele>
        <time>2018-03-25T09:56:28Z</time>
      </trkpt>
      <trkpt lat="50.754687571898103" lon="4.402218880131841">
        <ele>1049.46</ele>
        <time>2018-03-25T09:56:29Z</time>
      </trkpt>
      <trkpt lat="50.754405772313476" lon="4.402039172127843">
        <ele>1049.4300000000001</ele>
        <time>2018-03-25T09:56:39Z</time>
      </trkpt>
      <trkpt lat="50.754323629662395" lon="4.402000950649381">
        <ele>1049.4400000000001</ele>
        <time>2018-03-25T09:56:42Z</time>
      </trkpt>
      <trkpt lat="50.754293370991945" lon="4.401987539604306">
        <ele>1049.48</ele>
        <time>2018-03-25T09:56:43Z</time>
      </trkpt>
      <trkpt lat="50.754257328808308" lon="4.401952419430018">
        <ele>1049.48</ele>
        <time>2018-03-25T09:56:44Z</time>
      </trkpt>
      <trkpt lat="50.754220029339194" lon="4.401904474943876">
        <ele>1049.5</ele>
        <time>2018-03-25T09:56:45Z</time>
      </trkpt>
      <trkpt lat="50.754185663536191" lon="4.401883520185947">
        <ele>1049.45</ele>
        <time>2018-03-25T09:56:46Z</time>
      </trkpt>
      <trkpt lat="50.754145262762904" lon="4.401844460517168">
        <ele>1049.51</ele>
        <time>2018-03-25T09:56:47Z</time>
      </trkpt>
      <trkpt lat="50.754107711836696" lon="4.401812693104148">
        <ele>1049.46</ele>
        <time>2018-03-25T09:56:48Z</time>
      </trkpt>
      <trkpt lat="50.753704123198986" lon="4.401603396981955">
        <ele>1049.3900000000001</ele>
        <time>2018-03-25T09:57:00Z</time>
      </trkpt>
      <trkpt lat="50.753675540909171" lon="4.401600547134876">
        <ele>1049.3800000000001</ele>
        <time>2018-03-25T09:57:01Z</time>
      </trkpt>
      <trkpt lat="50.753650646656752" lon="4.401596020907164">
        <ele>1049.3900000000001</ele>
        <time>2018-03-25T09:57:02Z</time>
      </trkpt>
      <trkpt lat="50.7536187954247" lon="4.401572467759252">
        <ele>1049.4300000000001</ele>
        <time>2018-03-25T09:57:03Z</time>
      </trkpt>
      <trkpt lat="50.753270192071795" lon="4.401534665375948">
        <ele>1049.3599999999999</ele>
        <time>2018-03-25T09:57:13Z</time>
      </trkpt>
      <trkpt lat="50.753243872895837" lon="4.401527959853411">
        <ele>1049.3900000000001</ele>
        <time>2018-03-25T09:57:14Z</time>
      </trkpt>
      <trkpt lat="50.753216631710529" lon="4.401529552415013">
        <ele>1049.3900000000001</ele>
        <time>2018-03-25T09:57:15Z</time>
      </trkpt>
      <trkpt lat="50.752878757193685" lon="4.401684533804655">
        <ele>1049.4100000000001</ele>
        <time>2018-03-25T09:57:25Z</time>
      </trkpt>
      <trkpt lat="50.752675076946616" lon="4.401990808546543">
        <ele>1050.3099999999999</ele>
        <time>2018-03-25T09:57:34Z</time>
      </trkpt>
      <trkpt lat="50.752654457464814" lon="4.402021821588278">
        <ele>1050.3099999999999</ele>
        <time>2018-03-25T09:57:35Z</time>
      </trkpt>
      <trkpt lat="50.752635933458805" lon="4.402044704183936">
        <ele>1050.27</ele>
        <time>2018-03-25T09:57:36Z</time>
      </trkpt>
      <trkpt lat="50.75248128734529" lon="4.402595898136497">
        <ele>1052.05</ele>
        <time>2018-03-25T09:57:47Z</time>
      </trkpt>
      <trkpt lat="50.752398725599051" lon="4.403132842853665">
        <ele>1052.0599999999999</ele>
        <time>2018-03-25T09:57:56Z</time>
      </trkpt>
      <trkpt lat="50.752377435564995" lon="4.403592254966497">
        <ele>1052.04</ele>
        <time>2018-03-25T09:58:06Z</time>
      </trkpt>
      <trkpt lat="50.752243492752314" lon="4.404038842767477">
        <ele>1052.9100000000001</ele>
        <time>2018-03-25T09:58:15Z</time>
      </trkpt>
      <trkpt lat="50.752020701766014" lon="4.404422147199512">
        <ele>1052.9000000000001</ele>
        <time>2018-03-25T09:58:25Z</time>
      </trkpt>
      <trkpt lat="50.751989688724279" lon="4.40446263179183">
        <ele>1052.95</ele>
        <time>2018-03-25T09:58:26Z</time>
      </trkpt>
      <trkpt lat="50.751957502216101" lon="4.404492806643248">
        <ele>1052.9100000000001</ele>
        <time>2018-03-25T09:58:27Z</time>
      </trkpt>
      <trkpt lat="50.751664638519287" lon="4.404909890145063">
        <ele>1054.7</ele>
        <time>2018-03-25T09:58:39Z</time>
      </trkpt>
      <trkpt lat="50.751422485336661" lon="4.405232677236199">
        <ele>1055.9000000000001</ele>
        <time>2018-03-25T09:58:54Z</time>
      </trkpt>
      <trkpt lat="50.751406392082572" lon="4.405255056917667">
        <ele>1055.8199999999999</ele>
        <time>2018-03-25T09:58:55Z</time>
      </trkpt>
      <trkpt lat="50.751384766772389" lon="4.405282214283943">
        <ele>1055.8399999999999</ele>
        <time>2018-03-25T09:58:56Z</time>
      </trkpt>
      <trkpt lat="50.751370014622808" lon="4.405295876786113">
        <ele>1055.9100000000001</ele>
        <time>2018-03-25T09:58:57Z</time>
      </trkpt>
      <trkpt lat="50.751350065693259" lon="4.405308701097965">
        <ele>1055.8199999999999</ele>
        <time>2018-03-25T09:58:58Z</time>
      </trkpt>
      <trkpt lat="50.751328524202108" lon="4.405319429934025">
        <ele>1055.9100000000001</ele>
        <time>2018-03-25T09:58:59Z</time>
      </trkpt>
      <trkpt lat="50.75130807235837" lon="4.40533678047359">
        <ele>1055.8399999999999</ele>
        <time>2018-03-25T09:59:00Z</time>
      </trkpt>
      <trkpt lat="50.751290637999773" lon="4.405353628098965">
        <ele>1055.8399999999999</ele>
        <time>2018-03-25T09:59:01Z</time>
      </trkpt>
      <trkpt lat="50.751272281631827" lon="4.40537047572434">
        <ele>1055.8499999999999</ele>
        <time>2018-03-25T09:59:02Z</time>
      </trkpt>
      <trkpt lat="50.751172536984086" lon="4.405389167368412">
        <ele>1055.8399999999999</ele>
        <time>2018-03-25T09:59:07Z</time>
      </trkpt>
      <trkpt lat="50.75108134187758" lon="4.405437111854553">
        <ele>1055.8099999999999</ele>
        <time>2018-03-25T09:59:12Z</time>
      </trkpt>
      <trkpt lat="50.750902388244867" lon="4.405479691922665">
        <ele>1055.9400000000001</ele>
        <time>2018-03-25T09:59:24Z</time>
      </trkpt>
      <trkpt lat="50.750704323872924" lon="4.405652107670903">
        <ele>1055.8199999999999</ele>
        <time>2018-03-25T09:59:37Z</time>
      </trkpt>
      <trkpt lat="50.750451190397143" lon="4.406100874766707">
        <ele>1055.9200000000001</ele>
        <time>2018-03-25T09:59:49Z</time>
      </trkpt>
      <trkpt lat="50.750084230676293" lon="4.406720548868179">
        <ele>1055.96</ele>
        <time>2018-03-25T10:00:03Z</time>
      </trkpt>
      <trkpt lat="50.749736884608865" lon="4.407046772539616">
        <ele>1056.8299999999999</ele>
        <time>2018-03-25T10:00:14Z</time>
      </trkpt>
      <trkpt lat="50.749339163303375" lon="4.407287249341607">
        <ele>1057.75</ele>
        <time>2018-03-25T10:00:26Z</time>
      </trkpt>
      <trkpt lat="50.749068846926093" lon="4.407379785552621">
        <ele>1058.51</ele>
        <time>2018-03-25T10:00:35Z</time>
      </trkpt>
      <trkpt lat="50.749038839712739" lon="4.407393196597695">
        <ele>1058.55</ele>
        <time>2018-03-25T10:00:36Z</time>
      </trkpt>
      <trkpt lat="50.749008078128099" lon="4.407405434176326">
        <ele>1058.5</ele>
        <time>2018-03-25T10:00:37Z</time>
      </trkpt>
      <trkpt lat="50.748666264116764" lon="4.40753610804677">
        <ele>1060.46</ele>
        <time>2018-03-25T10:00:48Z</time>
      </trkpt>
      <trkpt lat="50.748565513640642" lon="4.407517081126571">
        <ele>1061.28</ele>
        <time>2018-03-25T10:00:51Z</time>
      </trkpt>
      <trkpt lat="50.748530896380544" lon="4.407495623454452">
        <ele>1061.27</ele>
        <time>2018-03-25T10:00:52Z</time>
      </trkpt>
      <trkpt lat="50.74849946424365" lon="4.407469052821398">
        <ele>1061.27</ele>
        <time>2018-03-25T10:00:53Z</time>
      </trkpt>
      <trkpt lat="50.748467026278377" lon="4.407441392540932">
        <ele>1061.27</ele>
        <time>2018-03-25T10:00:54Z</time>
      </trkpt>
      <trkpt lat="50.748433079570532" lon="4.407428735867143">
        <ele>1062.1600000000001</ele>
        <time>2018-03-25T10:00:55Z</time>
      </trkpt>
      <trkpt lat="50.74840072542429" lon="4.407420102506876">
        <ele>1062.1700000000001</ele>
        <time>2018-03-25T10:00:56Z</time>
      </trkpt>
      <trkpt lat="50.748367281630635" lon="4.407410211861134">
        <ele>1062.1500000000001</ele>
        <time>2018-03-25T10:00:57Z</time>
      </trkpt>
      <trkpt lat="50.748297208920121" lon="4.407379701733589">
        <ele>1063.98</ele>
        <time>2018-03-25T10:01:00Z</time>
      </trkpt>
      <trkpt lat="50.748035525903106" lon="4.407151630148292">
        <ele>1067.1400000000001</ele>
        <time>2018-03-25T10:01:11Z</time>
      </trkpt>
      <trkpt lat="50.748008955270052" lon="4.407127657905221">
        <ele>1067.1199999999999</ele>
        <time>2018-03-25T10:01:12Z</time>
      </trkpt>
      <trkpt lat="50.747992191463709" lon="4.407103015109897">
        <ele>1067.1500000000001</ele>
        <time>2018-03-25T10:01:13Z</time>
      </trkpt>
      <trkpt lat="50.747977271676064" lon="4.407085999846458">
        <ele>1067.1199999999999</ele>
        <time>2018-03-25T10:01:14Z</time>
      </trkpt>
      <trkpt lat="50.747950198128819" lon="4.407078288495541">
        <ele>1069.3599999999999</ele>
        <time>2018-03-25T10:01:15Z</time>
      </trkpt>
      <trkpt lat="50.747922034934163" lon="4.407070325687528">
        <ele>1060.22</ele>
        <time>2018-03-25T10:01:16Z</time>
      </trkpt>
      <trkpt lat="50.747891860082746" lon="4.40705724991858">
        <ele>1066.78</ele>
        <time>2018-03-25T10:01:17Z</time>
      </trkpt>
      <trkpt lat="50.747871156781912" lon="4.407041156664491">
        <ele>1066.73</ele>
        <time>2018-03-25T10:01:18Z</time>
      </trkpt>
      <trkpt lat="50.747846681624651" lon="4.407018022611737">
        <ele>1066.75</ele>
        <time>2018-03-25T10:01:19Z</time>
      </trkpt>
      <trkpt lat="50.747732017189264" lon="4.406913165003061">
        <ele>1066.6900000000001</ele>
        <time>2018-03-25T10:01:23Z</time>
      </trkpt>
      <trkpt lat="50.747672757133842" lon="4.406842337921262">
        <ele>1068.3</ele>
        <time>2018-03-25T10:01:25Z</time>
      </trkpt>
      <trkpt lat="50.747043695300817" lon="4.40638535656035">
        <ele>1070.8099999999999</ele>
        <time>2018-03-25T10:01:44Z</time>
      </trkpt>
      <trkpt lat="50.746740438044071" lon="4.406421314924955">
        <ele>1071.3</ele>
        <time>2018-03-25T10:02:01Z</time>
      </trkpt>
      <trkpt lat="50.746720572933555" lon="4.406410166993737">
        <ele>1071.29</ele>
        <time>2018-03-25T10:02:02Z</time>
      </trkpt>
      <trkpt lat="50.746598532423377" lon="4.406907800585032">
        <ele>1069.3800000000001</ele>
        <time>2018-03-25T10:02:21Z</time>
      </trkpt>
      <trkpt lat="50.746597526594996" lon="4.406938562169671">
        <ele>1069.3599999999999</ele>
        <time>2018-03-25T10:02:22Z</time>
      </trkpt>
      <trkpt lat="50.746599873527884" lon="4.40696588717401">
        <ele>1069.3699999999999</ele>
        <time>2018-03-25T10:02:23Z</time>
      </trkpt>
      <trkpt lat="50.746597107499838" lon="4.407417755573988">
        <ele>1066.4000000000001</ele>
        <time>2018-03-25T10:02:37Z</time>
      </trkpt>
      <trkpt lat="50.746507421135902" lon="4.408053439110518">
        <ele>1064.78</ele>
        <time>2018-03-25T10:02:48Z</time>
      </trkpt>
      <trkpt lat="50.746449586004019" lon="4.408566160127521">
        <ele>1063.6600000000001</ele>
        <time>2018-03-25T10:02:57Z</time>
      </trkpt>
      <trkpt lat="50.746443970128894" lon="4.40872348845005">
        <ele>1063.6600000000001</ele>
        <time>2018-03-25T10:03:00Z</time>
      </trkpt>
      <trkpt lat="50.74644816108048" lon="4.408784508705139">
        <ele>1063.6600000000001</ele>
        <time>2018-03-25T10:03:01Z</time>
      </trkpt>
      <trkpt lat="50.746583612635732" lon="4.409284237772226">
        <ele>1062.96</ele>
        <time>2018-03-25T10:03:12Z</time>
      </trkpt>
      <trkpt lat="50.746601298451424" lon="4.409397812560201">
        <ele>1062.96</ele>
        <time>2018-03-25T10:03:14Z</time>
      </trkpt>
      <trkpt lat="50.746605489403009" lon="4.409445840865374">
        <ele>1062.96</ele>
        <time>2018-03-25T10:03:15Z</time>
      </trkpt>
      <trkpt lat="50.746609177440405" lon="4.409476770088077">
        <ele>1062.96</ele>
        <time>2018-03-25T10:03:16Z</time>
      </trkpt>
      <trkpt lat="50.746616302058101" lon="4.409504346549511">
        <ele>1062.1700000000001</ele>
        <time>2018-03-25T10:03:17Z</time>
      </trkpt>
      <trkpt lat="50.746630299836397" lon="4.409547094255686">
        <ele>1062.1700000000001</ele>
        <time>2018-03-25T10:03:18Z</time>
      </trkpt>
      <trkpt lat="50.746639771386981" lon="4.409583806991577">
        <ele>1062.1900000000001</ele>
        <time>2018-03-25T10:03:19Z</time>
      </trkpt>
      <trkpt lat="50.746644884347916" lon="4.409636529162526">
        <ele>1062.1700000000001</ele>
        <time>2018-03-25T10:03:20Z</time>
      </trkpt>
      <trkpt lat="50.746651086956263" lon="4.409700063988566">
        <ele>1062.1700000000001</ele>
        <time>2018-03-25T10:03:21Z</time>
      </trkpt>
      <trkpt lat="50.746731804683805" lon="4.410076830536127">
        <ele>1061.29</ele>
        <time>2018-03-25T10:03:28Z</time>
      </trkpt>
      <trkpt lat="50.746743539348245" lon="4.410106586292386">
        <ele>1061.27</ele>
        <time>2018-03-25T10:03:29Z</time>
      </trkpt>
      <trkpt lat="50.746753932908177" lon="4.410161739215255">
        <ele>1061.29</ele>
        <time>2018-03-25T10:03:30Z</time>
      </trkpt>
      <trkpt lat="50.74680145829916" lon="4.410226363688707">
        <ele>1060.52</ele>
        <time>2018-03-25T10:03:32Z</time>
      </trkpt>
      <trkpt lat="50.746907824650407" lon="4.410688625648618">
        <ele>1060.51</ele>
        <time>2018-03-25T10:03:42Z</time>
      </trkpt>
      <trkpt lat="50.74691629037261" lon="4.410734977573156">
        <ele>1060.53</ele>
        <time>2018-03-25T10:03:43Z</time>
      </trkpt>
      <trkpt lat="50.746916709467769" lon="4.410781832411885">
        <ele>1060.53</ele>
        <time>2018-03-25T10:03:44Z</time>
      </trkpt>
      <trkpt lat="50.74692165479064" lon="4.410825502127409">
        <ele>1060.55</ele>
        <time>2018-03-25T10:03:45Z</time>
      </trkpt>
      <trkpt lat="50.747236311435699" lon="4.411908024922013">
        <ele>1057.5799999999999</ele>
        <time>2018-03-25T10:09:13Z</time>
      </trkpt>
      <trkpt lat="50.747173279523849" lon="4.411966949701309">
        <ele>1057.51</ele>
        <time>2018-03-25T10:09:25Z</time>
      </trkpt>
      <trkpt lat="50.747108068317175" lon="4.411998884752393">
        <ele>1056.7</ele>
        <time>2018-03-25T10:09:33Z</time>
      </trkpt>
      <trkpt lat="50.746875638142228" lon="4.412202145904303">
        <ele>1059.1099999999999</ele>
        <time>2018-03-25T10:09:48Z</time>
      </trkpt>
      <trkpt lat="50.746651673689485" lon="4.412320833653212">
        <ele>1060.75</ele>
        <time>2018-03-25T10:10:02Z</time>
      </trkpt>
      <trkpt lat="50.74634020216763" lon="4.412383865565062">
        <ele>1063.0899999999999</ele>
        <time>2018-03-25T10:10:14Z</time>
      </trkpt>
      <trkpt lat="50.746312206611037" lon="4.412376824766398">
        <ele>1063.0899999999999</ele>
        <time>2018-03-25T10:10:15Z</time>
      </trkpt>
      <trkpt lat="50.746275493875146" lon="4.412370873615146">
        <ele>1063.0999999999999</ele>
        <time>2018-03-25T10:10:16Z</time>
      </trkpt>
      <trkpt lat="50.746239786967635" lon="4.412347320467234">
        <ele>1063.0999999999999</ele>
        <time>2018-03-25T10:10:17Z</time>
      </trkpt>
      <trkpt lat="50.746214473620057" lon="4.41233835183084">
        <ele>1063.0999999999999</ele>
        <time>2018-03-25T10:10:18Z</time>
      </trkpt>
      <trkpt lat="50.745967794209719" lon="4.412503223866224">
        <ele>1064.77</ele>
        <time>2018-03-25T10:10:26Z</time>
      </trkpt>
      <trkpt lat="50.745569989085197" lon="4.412751663476229">
        <ele>1066.4400000000001</ele>
        <time>2018-03-25T10:10:36Z</time>
      </trkpt>
      <trkpt lat="50.745094735175371" lon="4.412979232147336">
        <ele>1068.05</ele>
        <time>2018-03-25T10:10:48Z</time>
      </trkpt>
      <trkpt lat="50.744741940870881" lon="4.41317779943347">
        <ele>1068.02</ele>
        <time>2018-03-25T10:10:56Z</time>
      </trkpt>
      <trkpt lat="50.744412280619144" lon="4.413383658975363">
        <ele>1067.96</ele>
        <time>2018-03-25T10:11:05Z</time>
      </trkpt>
      <trkpt lat="50.744294933974743" lon="4.413392208516598">
        <ele>1067.97</ele>
        <time>2018-03-25T10:11:10Z</time>
      </trkpt>
      <trkpt lat="50.743847172707319" lon="4.413423389196396">
        <ele>1067.9000000000001</ele>
        <time>2018-03-25T10:11:24Z</time>
      </trkpt>
      <trkpt lat="50.743705853819847" lon="4.413499580696225">
        <ele>1065.6099999999999</ele>
        <time>2018-03-25T10:11:29Z</time>
      </trkpt>
      <trkpt lat="50.743290949612856" lon="4.413606198504567">
        <ele>1062.99</ele>
        <time>2018-03-25T10:11:48Z</time>
      </trkpt>
      <trkpt lat="50.743078719824553" lon="4.41364299505949">
        <ele>1061.98</ele>
        <time>2018-03-25T10:11:59Z</time>
      </trkpt>
      <trkpt lat="50.742794908583164" lon="4.413779955357313">
        <ele>1064.49</ele>
        <time>2018-03-25T10:12:15Z</time>
      </trkpt>
      <trkpt lat="50.742645710706711" lon="4.413810633122921">
        <ele>1065.3099999999999</ele>
        <time>2018-03-25T10:12:22Z</time>
      </trkpt>
      <trkpt lat="50.742418728768826" lon="4.413924124091864">
        <ele>1066.98</ele>
        <time>2018-03-25T10:12:29Z</time>
      </trkpt>
      <trkpt lat="50.742391152307391" lon="4.413919514045119">
        <ele>1066.98</ele>
        <time>2018-03-25T10:12:30Z</time>
      </trkpt>
      <trkpt lat="50.742363072931767" lon="4.41393518820405">
        <ele>1066.99</ele>
        <time>2018-03-25T10:12:31Z</time>
      </trkpt>
      <trkpt lat="50.74233977124095" lon="4.413938708603382">
        <ele>1066.99</ele>
        <time>2018-03-25T10:12:32Z</time>
      </trkpt>
      <trkpt lat="50.74231194332242" lon="4.413947593420744">
        <ele>1067.99</ele>
        <time>2018-03-25T10:12:33Z</time>
      </trkpt>
      <trkpt lat="50.742285707965493" lon="4.41397869028151">
        <ele>1067.97</ele>
        <time>2018-03-25T10:12:34Z</time>
      </trkpt>
      <trkpt lat="50.741865187883377" lon="4.414264261722565">
        <ele>1069.6900000000001</ele>
        <time>2018-03-25T10:12:44Z</time>
      </trkpt>
      <trkpt lat="50.741344084963202" lon="4.414526196196675">
        <ele>1070.49</ele>
        <time>2018-03-25T10:12:55Z</time>
      </trkpt>
      <trkpt lat="50.741003612056375" lon="4.414647649973631">
        <ele>1072.0999999999999</ele>
        <time>2018-03-25T10:13:06Z</time>
      </trkpt>
      <trkpt lat="50.74069700203836" lon="4.41450297832489">
        <ele>1072.0799999999999</ele>
        <time>2018-03-25T10:13:25Z</time>
      </trkpt>
      <trkpt lat="50.740611422806978" lon="4.414273146539927">
        <ele>1072.0899999999999</ele>
        <time>2018-03-25T10:13:40Z</time>
      </trkpt>
      <trkpt lat="50.74045074172318" lon="4.413771824911237">
        <ele>1072.1199999999999</ele>
        <time>2018-03-25T10:14:00Z</time>
      </trkpt>
      <trkpt lat="50.740369521081448" lon="4.413313753902912">
        <ele>1072.96</ele>
        <time>2018-03-25T10:14:20Z</time>
      </trkpt>
      <trkpt lat="50.740334317088127" lon="4.412914691492915">
        <ele>1072.9400000000001</ele>
        <time>2018-03-25T10:14:38Z</time>
      </trkpt>
      <trkpt lat="50.740292491391301" lon="4.412692151963711">
        <ele>1073.8399999999999</ele>
        <time>2018-03-25T10:14:50Z</time>
      </trkpt>
      <trkpt lat="50.740289809182286" lon="4.412669353187084">
        <ele>1073.8399999999999</ele>
        <time>2018-03-25T10:14:51Z</time>
      </trkpt>
      <trkpt lat="50.740203140303493" lon="4.412221675738692">
        <ele>1073.8399999999999</ele>
        <time>2018-03-25T10:15:12Z</time>
      </trkpt>
      <trkpt lat="50.74019081890583" lon="4.411836778745055">
        <ele>1073.8299999999999</ele>
        <time>2018-03-25T10:15:29Z</time>
      </trkpt>
      <trkpt lat="50.740167098119855" lon="4.411634691059589">
        <ele>1073.8399999999999</ele>
        <time>2018-03-25T10:15:37Z</time>
      </trkpt>
      <trkpt lat="50.740107167512178" lon="4.411501167342067">
        <ele>1073.8399999999999</ele>
        <time>2018-03-25T10:15:47Z</time>
      </trkpt>
      <trkpt lat="50.740049919113517" lon="4.411459257826209">
        <ele>1073.8299999999999</ele>
        <time>2018-03-25T10:15:52Z</time>
      </trkpt>
      <trkpt lat="50.740045392885804" lon="4.411437548696995">
        <ele>1073.8299999999999</ele>
        <time>2018-03-25T10:15:53Z</time>
      </trkpt>
      <trkpt lat="50.74004128575325" lon="4.411412654444575">
        <ele>1073.8299999999999</ele>
        <time>2018-03-25T10:15:54Z</time>
      </trkpt>
      <trkpt lat="50.740036088973284" lon="4.411386754363775">
        <ele>1073.8299999999999</ele>
        <time>2018-03-25T10:15:55Z</time>
      </trkpt>
      <trkpt lat="50.740032652392983" lon="4.411368146538734">
        <ele>1073.8299999999999</ele>
        <time>2018-03-25T10:15:56Z</time>
      </trkpt>
      <trkpt lat="50.740023013204336" lon="4.411336127668619">
        <ele>1073.8199999999999</ele>
        <time>2018-03-25T10:15:57Z</time>
      </trkpt>
      <trkpt lat="50.740013122558594" lon="4.411319363862276">
        <ele>1073.8299999999999</ele>
        <time>2018-03-25T10:15:58Z</time>
      </trkpt>
      <trkpt lat="50.74000365100801" lon="4.411301594227552">
        <ele>1073.8299999999999</ele>
        <time>2018-03-25T10:15:59Z</time>
      </trkpt>
      <trkpt lat="50.739827379584312" lon="4.410903034731746">
        <ele>1073.8299999999999</ele>
        <time>2018-03-25T10:16:12Z</time>
      </trkpt>
      <trkpt lat="50.73976225219667" lon="4.410803625360131">
        <ele>1073.8499999999999</ele>
        <time>2018-03-25T10:16:17Z</time>
      </trkpt>
      <trkpt lat="50.739681618288159" lon="4.410747550427914">
        <ele>1073.8399999999999</ele>
        <time>2018-03-25T10:16:30Z</time>
      </trkpt>
      <trkpt lat="50.739640798419714" lon="4.410744197666645">
        <ele>1073.8399999999999</ele>
        <time>2018-03-25T10:16:39Z</time>
      </trkpt>
      <trkpt lat="50.739628644660115" lon="4.410750735551119">
        <ele>1073.8399999999999</ele>
        <time>2018-03-25T10:16:40Z</time>
      </trkpt>
      <trkpt lat="50.73966602794826" lon="4.410837488248944">
        <ele>1070.5799999999999</ele>
        <time>2018-03-25T11:45:50Z</time>
      </trkpt>
      <trkpt lat="50.739853782579303" lon="4.411207381635904">
        <ele>1067.72</ele>
        <time>2018-03-25T11:47:06Z</time>
      </trkpt>
      <trkpt lat="50.739924106746912" lon="4.411341156810522">
        <ele>1067.76</ele>
        <time>2018-03-25T11:47:23Z</time>
      </trkpt>
      <trkpt lat="50.739966770634055" lon="4.411457749083638">
        <ele>1058.3199999999999</ele>
        <time>2018-03-25T11:47:36Z</time>
      </trkpt>
      <trkpt lat="50.739970877766609" lon="4.41148130223155">
        <ele>1068.4000000000001</ele>
        <time>2018-03-25T11:47:37Z</time>
      </trkpt>
      <trkpt lat="50.739993928000331" lon="4.411511057987809">
        <ele>1070.24</ele>
        <time>2018-03-25T11:47:39Z</time>
      </trkpt>
      <trkpt lat="50.740121332928538" lon="4.411776345223188">
        <ele>1070.22</ele>
        <time>2018-03-25T11:47:58Z</time>
      </trkpt>
      <trkpt lat="50.740203559398651" lon="4.412159901112318">
        <ele>1070.2</ele>
        <time>2018-03-25T11:48:21Z</time>
      </trkpt>
      <trkpt lat="50.740252761170268" lon="4.412587210536003">
        <ele>1070.22</ele>
        <time>2018-03-25T11:48:40Z</time>
      </trkpt>
      <trkpt lat="50.740279331803322" lon="4.412700533866882">
        <ele>1070.21</ele>
        <time>2018-03-25T11:48:44Z</time>
      </trkpt>
      <trkpt lat="50.740297101438046" lon="4.413027595728636">
        <ele>1070.1800000000001</ele>
        <time>2018-03-25T11:49:01Z</time>
      </trkpt>
      <trkpt lat="50.740340938791633" lon="4.413324985653162">
        <ele>1070.1800000000001</ele>
        <time>2018-03-25T11:49:20Z</time>
      </trkpt>
      <trkpt lat="50.740369604900479" lon="4.413599912077189">
        <ele>1067.8499999999999</ele>
        <time>2018-03-25T11:49:37Z</time>
      </trkpt>
      <trkpt lat="50.7404116820544" lon="4.413856063038111">
        <ele>1067.03</ele>
        <time>2018-03-25T11:49:52Z</time>
      </trkpt>
      <trkpt lat="50.740521568804979" lon="4.414234338328242">
        <ele>1067.1400000000001</ele>
        <time>2018-03-25T11:50:11Z</time>
      </trkpt>
      <trkpt lat="50.74058854021132" lon="4.414564669132233">
        <ele>1069.46</ele>
        <time>2018-03-25T11:50:33Z</time>
      </trkpt>
      <trkpt lat="50.740680741146207" lon="4.414982758462429">
        <ele>1069.4000000000001</ele>
        <time>2018-03-25T11:50:53Z</time>
      </trkpt>
      <trkpt lat="50.740807643160224" lon="4.415440913289785">
        <ele>1069.4100000000001</ele>
        <time>2018-03-25T11:51:15Z</time>
      </trkpt>
      <trkpt lat="50.740928007289767" lon="4.415680803358555">
        <ele>1069.4100000000001</ele>
        <time>2018-03-25T11:51:35Z</time>
      </trkpt>
      <trkpt lat="50.741117103025317" lon="4.416035274043679">
        <ele>1069.4000000000001</ele>
        <time>2018-03-25T11:51:55Z</time>
      </trkpt>
      <trkpt lat="50.741266133263707" lon="4.416419416666031">
        <ele>1070.29</ele>
        <time>2018-03-25T11:52:15Z</time>
      </trkpt>
      <trkpt lat="50.741359675303102" lon="4.416671376675367">
        <ele>1069.1199999999999</ele>
        <time>2018-03-25T11:52:29Z</time>
      </trkpt>
      <trkpt lat="50.741384653374553" lon="4.416688475757837">
        <ele>1069.1400000000001</ele>
        <time>2018-03-25T11:52:32Z</time>
      </trkpt>
      <trkpt lat="50.741535946726799" lon="4.416931299492717">
        <ele>1069.1500000000001</ele>
        <time>2018-03-25T11:52:47Z</time>
      </trkpt>
      <trkpt lat="50.741696460172534" lon="4.417207399383187">
        <ele>1068.3900000000001</ele>
        <time>2018-03-25T11:53:05Z</time>
      </trkpt>
      <trkpt lat="50.74181011877954" lon="4.417456761002541">
        <ele>1068.4000000000001</ele>
        <time>2018-03-25T11:53:20Z</time>
      </trkpt>
      <trkpt lat="50.741879856213927" lon="4.417650802060962">
        <ele>1071.29</ele>
        <time>2018-03-25T11:53:29Z</time>
      </trkpt>
      <trkpt lat="50.741900056600571" lon="4.417715175077319">
        <ele>1068.96</ele>
        <time>2018-03-25T11:53:32Z</time>
      </trkpt>
      <trkpt lat="50.741917574778199" lon="4.417818943038583">
        <ele>1068.98</ele>
        <time>2018-03-25T11:53:37Z</time>
      </trkpt>
      <trkpt lat="50.741816321387887" lon="4.418017845600843">
        <ele>1068.95</ele>
        <time>2018-03-25T11:53:51Z</time>
      </trkpt>
      <trkpt lat="50.741681959480047" lon="4.41833577118814">
        <ele>1068.97</ele>
        <time>2018-03-25T11:54:06Z</time>
      </trkpt>
      <trkpt lat="50.741609120741487" lon="4.418622432276607">
        <ele>1068.1300000000001</ele>
        <time>2018-03-25T11:54:20Z</time>
      </trkpt>
      <trkpt lat="50.741527732461691" lon="4.418899035081267">
        <ele>1068.1199999999999</ele>
        <time>2018-03-25T11:54:35Z</time>
      </trkpt>
      <trkpt lat="50.741482051089406" lon="4.419130543246865">
        <ele>1067.3099999999999</ele>
        <time>2018-03-25T11:54:48Z</time>
      </trkpt>
      <trkpt lat="50.741467131301761" lon="4.41941955126822">
        <ele>1065.5799999999999</ele>
        <time>2018-03-25T11:55:04Z</time>
      </trkpt>
      <trkpt lat="50.741350203752518" lon="4.419651562348008">
        <ele>1064.46</ele>
        <time>2018-03-25T11:55:22Z</time>
      </trkpt>
      <trkpt lat="50.741248112171888" lon="4.419932942837477">
        <ele>1063.7</ele>
        <time>2018-03-25T11:55:37Z</time>
      </trkpt>
      <trkpt lat="50.741145433858037" lon="4.420200744643807">
        <ele>1062.0599999999999</ele>
        <time>2018-03-25T11:55:51Z</time>
      </trkpt>
      <trkpt lat="50.741098327562213" lon="4.420474413782358">
        <ele>1062.1400000000001</ele>
        <time>2018-03-25T11:56:06Z</time>
      </trkpt>
      <trkpt lat="50.740966983139515" lon="4.420811031013727">
        <ele>1061.3399999999999</ele>
        <time>2018-03-25T11:56:25Z</time>
      </trkpt>
      <trkpt lat="50.740911830216646" lon="4.421049496158958">
        <ele>1061.3499999999999</ele>
        <time>2018-03-25T11:56:39Z</time>
      </trkpt>
      <trkpt lat="50.740791549906135" lon="4.421328445896506">
        <ele>1059.6500000000001</ele>
        <time>2018-03-25T11:56:55Z</time>
      </trkpt>
      <trkpt lat="50.740709910169244" lon="4.421631786972284">
        <ele>1058.8299999999999</ele>
        <time>2018-03-25T11:57:09Z</time>
      </trkpt>
      <trkpt lat="50.740646040067077" lon="4.421895314007998">
        <ele>1057.9300000000001</ele>
        <time>2018-03-25T11:57:24Z</time>
      </trkpt>
      <trkpt lat="50.740592479705811" lon="4.422164373099804">
        <ele>1056.3099999999999</ele>
        <time>2018-03-25T11:57:39Z</time>
      </trkpt>
      <trkpt lat="50.740513186901808" lon="4.422439550980926">
        <ele>1055.5699999999999</ele>
        <time>2018-03-25T11:57:53Z</time>
      </trkpt>
      <trkpt lat="50.740487203001976" lon="4.42254382185638">
        <ele>1055.5899999999999</ele>
        <time>2018-03-25T11:57:58Z</time>
      </trkpt>
      <trkpt lat="50.740449652075768" lon="4.422814305871725">
        <ele>1054.79</ele>
        <time>2018-03-25T11:58:11Z</time>
      </trkpt>
      <trkpt lat="50.740345884114504" lon="4.423065008595586">
        <ele>1054.8199999999999</ele>
        <time>2018-03-25T11:58:27Z</time>
      </trkpt>
      <trkpt lat="50.740200374275446" lon="4.423397602513433">
        <ele>1053.9200000000001</ele>
        <time>2018-03-25T11:58:46Z</time>
      </trkpt>
      <trkpt lat="50.740098198875785" lon="4.423653250560165">
        <ele>1053.9300000000001</ele>
        <time>2018-03-25T11:59:00Z</time>
      </trkpt>
      <trkpt lat="50.740020666271448" lon="4.423908814787865">
        <ele>1052.26</ele>
        <time>2018-03-25T11:59:13Z</time>
      </trkpt>
      <trkpt lat="50.740005578845739" lon="4.424067819491029">
        <ele>1051.01</ele>
        <time>2018-03-25T11:59:21Z</time>
      </trkpt>
      <trkpt lat="50.73986291885376" lon="4.424255574122071">
        <ele>1050.1099999999999</ele>
        <time>2018-03-25T11:59:35Z</time>
      </trkpt>
      <trkpt lat="50.739701651036739" lon="4.424489764496684">
        <ele>1049.3800000000001</ele>
        <time>2018-03-25T11:59:50Z</time>
      </trkpt>
      <trkpt lat="50.739549435675144" lon="4.42462932318449">
        <ele>1046.1800000000001</ele>
        <time>2018-03-25T12:00:02Z</time>
      </trkpt>
      <trkpt lat="50.739365704357624" lon="4.424731833860278">
        <ele>1046.23</ele>
        <time>2018-03-25T12:00:17Z</time>
      </trkpt>
      <trkpt lat="50.739224134013057" lon="4.424845408648253">
        <ele>1046.27</ele>
        <time>2018-03-25T12:00:29Z</time>
      </trkpt>
      <trkpt lat="50.739168561995029" lon="4.424999300390482">
        <ele>1046.26</ele>
        <time>2018-03-25T12:00:47Z</time>
      </trkpt>
      <trkpt lat="50.739013161510229" lon="4.425474973395467">
        <ele>1046.25</ele>
        <time>2018-03-25T12:01:03Z</time>
      </trkpt>
      <trkpt lat="50.738916099071503" lon="4.425734560936689">
        <ele>1045.45</ele>
        <time>2018-03-25T12:01:17Z</time>
      </trkpt>
      <trkpt lat="50.735759055241942" lon="4.424224309623241">
        <ele>133.4921875</ele>
      </trkpt>
      <trkpt lat="50.734366653487086" lon="4.426968209445477">
        <ele>138.4765625</ele>
      </trkpt>
      <trkpt lat="50.732704773545265" lon="4.428917840123177">
        <ele>143.48828125</ele>
      </trkpt>
      <trkpt lat="50.731851328164339" lon="4.430506462231278">
        <ele>140.671875</ele>
      </trkpt>
      <trkpt lat="50.731357298791409" lon="4.434477891772986">
        <ele>128.82421875</ele>
      </trkpt>
      <trkpt lat="50.73072848841548" lon="4.443215187638998">
        <ele>97.3359375</ele>
      </trkpt>
      <trkpt lat="50.731761557981372" lon="4.443504028022289">
        <ele>103.98046875</ele>
      </trkpt>
      <trkpt lat="50.731761557981372" lon="4.441915405914187">
        <ele>107.73828125</ele>
      </trkpt>
      <trkpt lat="50.733109032735229" lon="4.440399035811424">
        <ele>111.6484375</ele>
      </trkpt>
      <trkpt lat="50.734591204673052" lon="4.439749186858535">
        <ele>107.86328125</ele>
      </trkpt>
      <trkpt lat="50.736073460429907" lon="4.438882665708661">
        <ele>110.87890625</ele>
      </trkpt>
      <trkpt lat="50.736702270805836" lon="4.438016144558787">
        <ele>107.578125</ele>
      </trkpt>
      <trkpt lat="50.738283349201083" lon="4.438478322699666">
        <ele>113.81640625</ele>
      </trkpt>
      <trkpt lat="50.740277571603656" lon="4.43934484384954">
        <ele>134.0234375</ele>
      </trkpt>
      <trkpt lat="50.74192151427269" lon="4.439864689484239">
        <ele>136.30859375</ele>
      </trkpt>
      <trkpt lat="50.742541356012225" lon="4.439518097788096">
        <ele>136.484375</ele>
      </trkpt>
      <trkpt lat="50.744266100227833" lon="4.4409045483917">
        <ele>140.14453125</ele>
      </trkpt>
      <trkpt lat="50.746583780273795" lon="4.446016838774085">
        <ele>135.94921875</ele>
      </trkpt>
      <trkpt lat="50.747752888128161" lon="4.448876325041056">
        <ele>137.02734375</ele>
      </trkpt>
      <trkpt lat="50.74912735261023" lon="4.45104262791574">
        <ele>142.45703125</ele>
      </trkpt>
      <trkpt lat="50.7513911370188" lon="4.455028474330902">
        <ele>136.07421875</ele>
      </trkpt>
      <trkpt lat="50.752145675942302" lon="4.454898554831743">
        <ele>133.171875</ele>
      </trkpt>
      <trkpt lat="50.75281941331923" lon="4.453165512531996">
        <ele>126.88671875</ele>
      </trkpt>
      <trkpt lat="50.754544157534838" lon="4.451605807989836">
        <ele>120.3671875</ele>
      </trkpt>
      <trkpt lat="50.757093261927366" lon="4.452645583078265">
        <ele>118.66015625</ele>
      </trkpt>
      <trkpt lat="50.758171174675226" lon="4.453468769788742">
        <ele>116.76953125</ele>
      </trkpt>
      <trkpt lat="50.759249171242118" lon="4.454638548195362">
        <ele>110.03125</ele>
      </trkpt>
      <trkpt lat="50.759976804256439" lon="4.454725217074156">
        <ele>105.84765625</ele>
      </trkpt>
      <trkpt lat="50.760542750358582" lon="4.453815361484885">
        <ele>104.37890625</ele>
      </trkpt>
      <trkpt lat="50.761270383372903" lon="4.451995734125376">
        <ele>100.94921875</ele>
      </trkpt>
      <trkpt lat="50.761852422729135" lon="4.451367510482669">
        <ele>96.72265625</ele>
      </trkpt>
      <trkpt lat="50.762620540335774" lon="4.450847581028938">
        <ele>98.875</ele>
      </trkpt>
      <trkpt lat="50.763375079259276" lon="4.450457654893398">
        <ele>100.75390625</ele>
      </trkpt>
      <trkpt lat="50.763375079259276" lon="4.449396170675755">
        <ele>102.06640625</ele>
      </trkpt>
      <trkpt lat="50.764156607910991" lon="4.449504464864731">
        <ele>101.83984375</ele>
      </trkpt>
      <trkpt lat="50.764560867100954" lon="4.448269726708531">
        <ele>110.30078125</ele>
      </trkpt>
      <trkpt lat="50.76511331833899" lon="4.447554834187031">
        <ele>114.0703125</ele>
      </trkpt>
      <trkpt lat="50.766277313232422" lon="4.450002769008279">
        <ele>99.13671875</ele>
      </trkpt>
      <trkpt lat="50.766708562150598" lon="4.448962910100818">
        <ele>101.078125</ele>
      </trkpt>
    </trkseg>
  </trk>

</gpx>